<?xml version="1.0" encoding="UTF-8" standalone="no" ?>
<gpx xmlns="http://www.topografix.com/GPX/1/1" xmlns:xsi="http://www.w3.org/2001/XMLSchema-instance" xsi:schemaLocation="http://www.topografix.com/GPX/1/1 http://www.topografix.com/GPX/1/1/gpx.xsd" version="1.1" creator="VisuGPX - https://www.visugpx.com">
  <metadata>
    <name>RSPFY-Etang Rompu</name>
    <desc><![CDATA[boucle de marche nordique au départ de l'Etang Rompu en passant par le dolmen de la Pierre Ardoue, la maison forestière du Bocquet et le carrefour du grand Baliveau.]]></desc>
  </metadata>
  <trk>
    <name><![CDATA[2025-11-27 08:57]]></name>
    <desc><![CDATA[<p>Heure de départ: 08:57 27 nov. 2025<br/>Heure d'arrivée: 11:42 27 nov. 2025<br/>Distance: 12,5 km (02:45)<br/>Temps déplacement: 02:28<br/>Vitesse moyenne: 4,53 km/h<br/>Vitesse moyenne mouv.: 5,05 km/h<br/>Vitesse Max.: 7,79 km/h<br/>Altitude minimale: 130 m<br/>Altitude maximale: 191 m<br/>Vitesse de montée: 213,3 m/h<br/>Vitesse de descente: -172,1 m/h<br/>Gain d'altitude: 254 m<br/>Perte d'altitude: -260 m<br/>Temps de montée: 01:11<br/>Temps de descente: 01:30<br/></p><hr align="center" width="480" style="height: 2px; width: 517px"/>]]></desc>
    <trkseg>
      <trkpt lat="48.73828" lon="1.7739">
        <ele>155.3</ele>
        <time>2025-11-27T07:57:35Z</time>
      </trkpt>
      <trkpt lat="48.73837" lon="1.77392">
        <ele>154.9</ele>
        <time>2025-11-27T07:57:53Z</time>
      </trkpt>
      <trkpt lat="48.73829" lon="1.77387">
        <ele>155.4</ele>
        <time>2025-11-27T07:58:55Z</time>
      </trkpt>
      <trkpt lat="48.73828" lon="1.77373">
        <ele>156.1</ele>
        <time>2025-11-27T07:59:43Z</time>
      </trkpt>
      <trkpt lat="48.73833" lon="1.77362">
        <ele>156</ele>
        <time>2025-11-27T07:59:51Z</time>
      </trkpt>
      <trkpt lat="48.73837" lon="1.77347">
        <ele>156.7</ele>
        <time>2025-11-27T08:00:00Z</time>
      </trkpt>
      <trkpt lat="48.73842" lon="1.77335">
        <ele>156.9</ele>
        <time>2025-11-27T08:00:08Z</time>
      </trkpt>
      <trkpt lat="48.73849" lon="1.77324">
        <ele>156.9</ele>
        <time>2025-11-27T08:00:17Z</time>
      </trkpt>
      <trkpt lat="48.73855" lon="1.77312">
        <ele>156.6</ele>
        <time>2025-11-27T08:00:25Z</time>
      </trkpt>
      <trkpt lat="48.73861" lon="1.77301">
        <ele>156.1</ele>
        <time>2025-11-27T08:00:33Z</time>
      </trkpt>
      <trkpt lat="48.73868" lon="1.77289">
        <ele>155.9</ele>
        <time>2025-11-27T08:00:41Z</time>
      </trkpt>
      <trkpt lat="48.73874" lon="1.77277">
        <ele>155.6</ele>
        <time>2025-11-27T08:00:49Z</time>
      </trkpt>
      <trkpt lat="48.73882" lon="1.77266">
        <ele>155.2</ele>
        <time>2025-11-27T08:00:57Z</time>
      </trkpt>
      <trkpt lat="48.73889" lon="1.77257">
        <ele>154.8</ele>
        <time>2025-11-27T08:01:04Z</time>
      </trkpt>
      <trkpt lat="48.73896" lon="1.77248">
        <ele>154.9</ele>
        <time>2025-11-27T08:01:11Z</time>
      </trkpt>
      <trkpt lat="48.73904" lon="1.7724">
        <ele>155</ele>
        <time>2025-11-27T08:01:19Z</time>
      </trkpt>
      <trkpt lat="48.73913" lon="1.77234">
        <ele>154.8</ele>
        <time>2025-11-27T08:01:37Z</time>
      </trkpt>
      <trkpt lat="48.73922" lon="1.77228">
        <ele>154.5</ele>
        <time>2025-11-27T08:01:45Z</time>
      </trkpt>
      <trkpt lat="48.73931" lon="1.77231">
        <ele>153.8</ele>
        <time>2025-11-27T08:01:56Z</time>
      </trkpt>
      <trkpt lat="48.73939" lon="1.77222">
        <ele>153.4</ele>
        <time>2025-11-27T08:02:03Z</time>
      </trkpt>
      <trkpt lat="48.73948" lon="1.77216">
        <ele>153.3</ele>
        <time>2025-11-27T08:02:09Z</time>
      </trkpt>
      <trkpt lat="48.73956" lon="1.77212">
        <ele>152.8</ele>
        <time>2025-11-27T08:02:15Z</time>
      </trkpt>
      <trkpt lat="48.73963" lon="1.77202">
        <ele>152.3</ele>
        <time>2025-11-27T08:02:21Z</time>
      </trkpt>
      <trkpt lat="48.73973" lon="1.77198">
        <ele>151.2</ele>
        <time>2025-11-27T08:02:28Z</time>
      </trkpt>
      <trkpt lat="48.73981" lon="1.77192">
        <ele>151.4</ele>
        <time>2025-11-27T08:02:34Z</time>
      </trkpt>
      <trkpt lat="48.73989" lon="1.77184">
        <ele>151.7</ele>
        <time>2025-11-27T08:02:41Z</time>
      </trkpt>
      <trkpt lat="48.73996" lon="1.77174">
        <ele>151.4</ele>
        <time>2025-11-27T08:02:49Z</time>
      </trkpt>
      <trkpt lat="48.74004" lon="1.77164">
        <ele>151.1</ele>
        <time>2025-11-27T08:02:57Z</time>
      </trkpt>
      <trkpt lat="48.74011" lon="1.77154">
        <ele>151.1</ele>
        <time>2025-11-27T08:03:05Z</time>
      </trkpt>
      <trkpt lat="48.74017" lon="1.77142">
        <ele>150.8</ele>
        <time>2025-11-27T08:03:11Z</time>
      </trkpt>
      <trkpt lat="48.74022" lon="1.77129">
        <ele>150.7</ele>
        <time>2025-11-27T08:03:17Z</time>
      </trkpt>
      <trkpt lat="48.7403" lon="1.77118">
        <ele>150.7</ele>
        <time>2025-11-27T08:03:24Z</time>
      </trkpt>
      <trkpt lat="48.74037" lon="1.7711">
        <ele>150.7</ele>
        <time>2025-11-27T08:03:30Z</time>
      </trkpt>
      <trkpt lat="48.74043" lon="1.77098">
        <ele>150.9</ele>
        <time>2025-11-27T08:03:37Z</time>
      </trkpt>
      <trkpt lat="48.7405" lon="1.77087">
        <ele>151.1</ele>
        <time>2025-11-27T08:03:44Z</time>
      </trkpt>
      <trkpt lat="48.74056" lon="1.77074">
        <ele>151</ele>
        <time>2025-11-27T08:03:50Z</time>
      </trkpt>
      <trkpt lat="48.74063" lon="1.77063">
        <ele>150.7</ele>
        <time>2025-11-27T08:03:57Z</time>
      </trkpt>
      <trkpt lat="48.74069" lon="1.77052">
        <ele>150.6</ele>
        <time>2025-11-27T08:04:04Z</time>
      </trkpt>
      <trkpt lat="48.74075" lon="1.7704">
        <ele>150.5</ele>
        <time>2025-11-27T08:04:10Z</time>
      </trkpt>
      <trkpt lat="48.74081" lon="1.77028">
        <ele>150.1</ele>
        <time>2025-11-27T08:04:17Z</time>
      </trkpt>
      <trkpt lat="48.74087" lon="1.77016">
        <ele>149.7</ele>
        <time>2025-11-27T08:04:24Z</time>
      </trkpt>
      <trkpt lat="48.74094" lon="1.77004">
        <ele>149.3</ele>
        <time>2025-11-27T08:04:30Z</time>
      </trkpt>
      <trkpt lat="48.74099" lon="1.76993">
        <ele>148.8</ele>
        <time>2025-11-27T08:04:37Z</time>
      </trkpt>
      <trkpt lat="48.74105" lon="1.76982">
        <ele>148.4</ele>
        <time>2025-11-27T08:04:43Z</time>
      </trkpt>
      <trkpt lat="48.74111" lon="1.7697">
        <ele>148</ele>
        <time>2025-11-27T08:04:50Z</time>
      </trkpt>
      <trkpt lat="48.74118" lon="1.76959">
        <ele>148</ele>
        <time>2025-11-27T08:04:57Z</time>
      </trkpt>
      <trkpt lat="48.74123" lon="1.76947">
        <ele>148</ele>
        <time>2025-11-27T08:05:04Z</time>
      </trkpt>
      <trkpt lat="48.74129" lon="1.76934">
        <ele>148.1</ele>
        <time>2025-11-27T08:05:11Z</time>
      </trkpt>
      <trkpt lat="48.74135" lon="1.7692">
        <ele>148.1</ele>
        <time>2025-11-27T08:05:17Z</time>
      </trkpt>
      <trkpt lat="48.7414" lon="1.76907">
        <ele>148</ele>
        <time>2025-11-27T08:05:23Z</time>
      </trkpt>
      <trkpt lat="48.74146" lon="1.76895">
        <ele>148</ele>
        <time>2025-11-27T08:05:30Z</time>
      </trkpt>
      <trkpt lat="48.74151" lon="1.76884">
        <ele>148.1</ele>
        <time>2025-11-27T08:05:36Z</time>
      </trkpt>
      <trkpt lat="48.74158" lon="1.76872">
        <ele>148.2</ele>
        <time>2025-11-27T08:05:43Z</time>
      </trkpt>
      <trkpt lat="48.74164" lon="1.7686">
        <ele>148.1</ele>
        <time>2025-11-27T08:05:50Z</time>
      </trkpt>
      <trkpt lat="48.74169" lon="1.76848">
        <ele>148.4</ele>
        <time>2025-11-27T08:05:57Z</time>
      </trkpt>
      <trkpt lat="48.74175" lon="1.76836">
        <ele>148.6</ele>
        <time>2025-11-27T08:06:04Z</time>
      </trkpt>
      <trkpt lat="48.74181" lon="1.76824">
        <ele>148.7</ele>
        <time>2025-11-27T08:06:11Z</time>
      </trkpt>
      <trkpt lat="48.74186" lon="1.76811">
        <ele>148.5</ele>
        <time>2025-11-27T08:06:18Z</time>
      </trkpt>
      <trkpt lat="48.74191" lon="1.76798">
        <ele>148.5</ele>
        <time>2025-11-27T08:06:25Z</time>
      </trkpt>
      <trkpt lat="48.74195" lon="1.76786">
        <ele>148.7</ele>
        <time>2025-11-27T08:06:31Z</time>
      </trkpt>
      <trkpt lat="48.74198" lon="1.76772">
        <ele>148.9</ele>
        <time>2025-11-27T08:06:38Z</time>
      </trkpt>
      <trkpt lat="48.74201" lon="1.76757">
        <ele>148.8</ele>
        <time>2025-11-27T08:06:47Z</time>
      </trkpt>
      <trkpt lat="48.74203" lon="1.76744">
        <ele>148.9</ele>
        <time>2025-11-27T08:06:54Z</time>
      </trkpt>
      <trkpt lat="48.74206" lon="1.7673">
        <ele>149.3</ele>
        <time>2025-11-27T08:07:01Z</time>
      </trkpt>
      <trkpt lat="48.74208" lon="1.76716">
        <ele>149.6</ele>
        <time>2025-11-27T08:07:09Z</time>
      </trkpt>
      <trkpt lat="48.7421" lon="1.76701">
        <ele>149.8</ele>
        <time>2025-11-27T08:07:17Z</time>
      </trkpt>
      <trkpt lat="48.74214" lon="1.76687">
        <ele>149.8</ele>
        <time>2025-11-27T08:07:24Z</time>
      </trkpt>
      <trkpt lat="48.74216" lon="1.76672">
        <ele>150.1</ele>
        <time>2025-11-27T08:07:30Z</time>
      </trkpt>
      <trkpt lat="48.74219" lon="1.76657">
        <ele>150.1</ele>
        <time>2025-11-27T08:07:38Z</time>
      </trkpt>
      <trkpt lat="48.74222" lon="1.76644">
        <ele>150</ele>
        <time>2025-11-27T08:07:44Z</time>
      </trkpt>
      <trkpt lat="48.74225" lon="1.76631">
        <ele>149.9</ele>
        <time>2025-11-27T08:07:50Z</time>
      </trkpt>
      <trkpt lat="48.74228" lon="1.76616">
        <ele>149.8</ele>
        <time>2025-11-27T08:07:58Z</time>
      </trkpt>
      <trkpt lat="48.7423" lon="1.76601">
        <ele>149.7</ele>
        <time>2025-11-27T08:08:06Z</time>
      </trkpt>
      <trkpt lat="48.74232" lon="1.76586">
        <ele>149.7</ele>
        <time>2025-11-27T08:08:13Z</time>
      </trkpt>
      <trkpt lat="48.74234" lon="1.76573">
        <ele>149.6</ele>
        <time>2025-11-27T08:08:20Z</time>
      </trkpt>
      <trkpt lat="48.74236" lon="1.76558">
        <ele>149.5</ele>
        <time>2025-11-27T08:08:28Z</time>
      </trkpt>
      <trkpt lat="48.74237" lon="1.76542">
        <ele>149</ele>
        <time>2025-11-27T08:08:34Z</time>
      </trkpt>
      <trkpt lat="48.74236" lon="1.76528">
        <ele>148.5</ele>
        <time>2025-11-27T08:08:40Z</time>
      </trkpt>
      <trkpt lat="48.74232" lon="1.76515">
        <ele>148.6</ele>
        <time>2025-11-27T08:08:46Z</time>
      </trkpt>
      <trkpt lat="48.74228" lon="1.76503">
        <ele>148.8</ele>
        <time>2025-11-27T08:09:01Z</time>
      </trkpt>
      <trkpt lat="48.74223" lon="1.76489">
        <ele>149</ele>
        <time>2025-11-27T08:09:05Z</time>
      </trkpt>
      <trkpt lat="48.74218" lon="1.76477">
        <ele>149.3</ele>
        <time>2025-11-27T08:09:12Z</time>
      </trkpt>
      <trkpt lat="48.74213" lon="1.76464">
        <ele>149.7</ele>
        <time>2025-11-27T08:09:19Z</time>
      </trkpt>
      <trkpt lat="48.74209" lon="1.7645">
        <ele>150</ele>
        <time>2025-11-27T08:09:27Z</time>
      </trkpt>
      <trkpt lat="48.74207" lon="1.76436">
        <ele>149.8</ele>
        <time>2025-11-27T08:09:34Z</time>
      </trkpt>
      <trkpt lat="48.74208" lon="1.76421">
        <ele>149.2</ele>
        <time>2025-11-27T08:09:41Z</time>
      </trkpt>
      <trkpt lat="48.74212" lon="1.76407">
        <ele>149.1</ele>
        <time>2025-11-27T08:09:48Z</time>
      </trkpt>
      <trkpt lat="48.74216" lon="1.76393">
        <ele>149.3</ele>
        <time>2025-11-27T08:09:54Z</time>
      </trkpt>
      <trkpt lat="48.74219" lon="1.76379">
        <ele>149.6</ele>
        <time>2025-11-27T08:10:02Z</time>
      </trkpt>
      <trkpt lat="48.74213" lon="1.76369">
        <ele>150.6</ele>
        <time>2025-11-27T08:10:09Z</time>
      </trkpt>
      <trkpt lat="48.74204" lon="1.76368">
        <ele>151.6</ele>
        <time>2025-11-27T08:10:16Z</time>
      </trkpt>
      <trkpt lat="48.74193" lon="1.76368">
        <ele>152.8</ele>
        <time>2025-11-27T08:10:38Z</time>
      </trkpt>
      <trkpt lat="48.74183" lon="1.76364">
        <ele>154.8</ele>
        <time>2025-11-27T08:10:45Z</time>
      </trkpt>
      <trkpt lat="48.74174" lon="1.7636">
        <ele>156.8</ele>
        <time>2025-11-27T08:10:54Z</time>
      </trkpt>
      <trkpt lat="48.74165" lon="1.7636">
        <ele>158.4</ele>
        <time>2025-11-27T08:11:04Z</time>
      </trkpt>
      <trkpt lat="48.74156" lon="1.76356">
        <ele>160.4</ele>
        <time>2025-11-27T08:11:21Z</time>
      </trkpt>
      <trkpt lat="48.74146" lon="1.76355">
        <ele>162.2</ele>
        <time>2025-11-27T08:11:28Z</time>
      </trkpt>
      <trkpt lat="48.74136" lon="1.76354">
        <ele>163.7</ele>
        <time>2025-11-27T08:11:36Z</time>
      </trkpt>
      <trkpt lat="48.74127" lon="1.76354">
        <ele>164.6</ele>
        <time>2025-11-27T08:11:44Z</time>
      </trkpt>
      <trkpt lat="48.74118" lon="1.76352">
        <ele>165.7</ele>
        <time>2025-11-27T08:11:51Z</time>
      </trkpt>
      <trkpt lat="48.74109" lon="1.76351">
        <ele>166.5</ele>
        <time>2025-11-27T08:11:59Z</time>
      </trkpt>
      <trkpt lat="48.74099" lon="1.7635">
        <ele>167.3</ele>
        <time>2025-11-27T08:12:10Z</time>
      </trkpt>
      <trkpt lat="48.74089" lon="1.76349">
        <ele>168</ele>
        <time>2025-11-27T08:12:18Z</time>
      </trkpt>
      <trkpt lat="48.7408" lon="1.76347">
        <ele>168.8</ele>
        <time>2025-11-27T08:12:26Z</time>
      </trkpt>
      <trkpt lat="48.7407" lon="1.76346">
        <ele>169.5</ele>
        <time>2025-11-27T08:12:34Z</time>
      </trkpt>
      <trkpt lat="48.7406" lon="1.76348">
        <ele>170.1</ele>
        <time>2025-11-27T08:12:42Z</time>
      </trkpt>
      <trkpt lat="48.74051" lon="1.76348">
        <ele>170.7</ele>
        <time>2025-11-27T08:12:50Z</time>
      </trkpt>
      <trkpt lat="48.74041" lon="1.7635">
        <ele>170.9</ele>
        <time>2025-11-27T08:12:58Z</time>
      </trkpt>
      <trkpt lat="48.74031" lon="1.76344">
        <ele>171.5</ele>
        <time>2025-11-27T08:13:08Z</time>
      </trkpt>
      <trkpt lat="48.74023" lon="1.76352">
        <ele>171.6</ele>
        <time>2025-11-27T08:13:26Z</time>
      </trkpt>
      <trkpt lat="48.74014" lon="1.76356">
        <ele>172.1</ele>
        <time>2025-11-27T08:13:33Z</time>
      </trkpt>
      <trkpt lat="48.74005" lon="1.76361">
        <ele>172.7</ele>
        <time>2025-11-27T08:13:40Z</time>
      </trkpt>
      <trkpt lat="48.73995" lon="1.76362">
        <ele>173.1</ele>
        <time>2025-11-27T08:13:47Z</time>
      </trkpt>
      <trkpt lat="48.73985" lon="1.76364">
        <ele>173.4</ele>
        <time>2025-11-27T08:13:55Z</time>
      </trkpt>
      <trkpt lat="48.73975" lon="1.76366">
        <ele>173.7</ele>
        <time>2025-11-27T08:14:02Z</time>
      </trkpt>
      <trkpt lat="48.73965" lon="1.76367">
        <ele>174.1</ele>
        <time>2025-11-27T08:14:09Z</time>
      </trkpt>
      <trkpt lat="48.73955" lon="1.76367">
        <ele>174.4</ele>
        <time>2025-11-27T08:14:17Z</time>
      </trkpt>
      <trkpt lat="48.73946" lon="1.76368">
        <ele>174.7</ele>
        <time>2025-11-27T08:14:24Z</time>
      </trkpt>
      <trkpt lat="48.73935" lon="1.76369">
        <ele>175</ele>
        <time>2025-11-27T08:14:32Z</time>
      </trkpt>
      <trkpt lat="48.73925" lon="1.76371">
        <ele>175.3</ele>
        <time>2025-11-27T08:14:40Z</time>
      </trkpt>
      <trkpt lat="48.73916" lon="1.76373">
        <ele>175.6</ele>
        <time>2025-11-27T08:14:47Z</time>
      </trkpt>
      <trkpt lat="48.73906" lon="1.76376">
        <ele>175.7</ele>
        <time>2025-11-27T08:14:54Z</time>
      </trkpt>
      <trkpt lat="48.73896" lon="1.76378">
        <ele>175.8</ele>
        <time>2025-11-27T08:15:01Z</time>
      </trkpt>
      <trkpt lat="48.73886" lon="1.7638">
        <ele>176</ele>
        <time>2025-11-27T08:15:08Z</time>
      </trkpt>
      <trkpt lat="48.73877" lon="1.76382">
        <ele>176.1</ele>
        <time>2025-11-27T08:15:15Z</time>
      </trkpt>
      <trkpt lat="48.73868" lon="1.76384">
        <ele>176.1</ele>
        <time>2025-11-27T08:15:22Z</time>
      </trkpt>
      <trkpt lat="48.73858" lon="1.76385">
        <ele>176.3</ele>
        <time>2025-11-27T08:15:29Z</time>
      </trkpt>
      <trkpt lat="48.73848" lon="1.76387">
        <ele>176.5</ele>
        <time>2025-11-27T08:15:36Z</time>
      </trkpt>
      <trkpt lat="48.73838" lon="1.76388">
        <ele>176.8</ele>
        <time>2025-11-27T08:15:43Z</time>
      </trkpt>
      <trkpt lat="48.73829" lon="1.76388">
        <ele>177.2</ele>
        <time>2025-11-27T08:15:50Z</time>
      </trkpt>
      <trkpt lat="48.73822" lon="1.76379">
        <ele>177.6</ele>
        <time>2025-11-27T08:16:00Z</time>
      </trkpt>
      <trkpt lat="48.73816" lon="1.76368">
        <ele>177.9</ele>
        <time>2025-11-27T08:16:08Z</time>
      </trkpt>
      <trkpt lat="48.73811" lon="1.76356">
        <ele>178</ele>
        <time>2025-11-27T08:16:16Z</time>
      </trkpt>
      <trkpt lat="48.73812" lon="1.76341">
        <ele>178</ele>
        <time>2025-11-27T08:16:23Z</time>
      </trkpt>
      <trkpt lat="48.73814" lon="1.76327">
        <ele>178</ele>
        <time>2025-11-27T08:16:31Z</time>
      </trkpt>
      <trkpt lat="48.73816" lon="1.76313">
        <ele>178</ele>
        <time>2025-11-27T08:16:38Z</time>
      </trkpt>
      <trkpt lat="48.7382" lon="1.763">
        <ele>178</ele>
        <time>2025-11-27T08:16:43Z</time>
      </trkpt>
      <trkpt lat="48.73823" lon="1.76286">
        <ele>178</ele>
        <time>2025-11-27T08:16:49Z</time>
      </trkpt>
      <trkpt lat="48.73827" lon="1.76273">
        <ele>178</ele>
        <time>2025-11-27T08:16:55Z</time>
      </trkpt>
      <trkpt lat="48.73834" lon="1.76265">
        <ele>178</ele>
        <time>2025-11-27T08:17:02Z</time>
      </trkpt>
      <trkpt lat="48.73832" lon="1.7625">
        <ele>178.1</ele>
        <time>2025-11-27T08:17:09Z</time>
      </trkpt>
      <trkpt lat="48.73835" lon="1.76237">
        <ele>178.4</ele>
        <time>2025-11-27T08:17:15Z</time>
      </trkpt>
      <trkpt lat="48.73839" lon="1.76224">
        <ele>178.7</ele>
        <time>2025-11-27T08:17:21Z</time>
      </trkpt>
      <trkpt lat="48.73841" lon="1.76209">
        <ele>178.8</ele>
        <time>2025-11-27T08:17:28Z</time>
      </trkpt>
      <trkpt lat="48.73843" lon="1.76196">
        <ele>179</ele>
        <time>2025-11-27T08:17:35Z</time>
      </trkpt>
      <trkpt lat="48.73846" lon="1.7618">
        <ele>179</ele>
        <time>2025-11-27T08:17:42Z</time>
      </trkpt>
      <trkpt lat="48.73849" lon="1.76166">
        <ele>179</ele>
        <time>2025-11-27T08:17:50Z</time>
      </trkpt>
      <trkpt lat="48.73852" lon="1.76152">
        <ele>179</ele>
        <time>2025-11-27T08:17:56Z</time>
      </trkpt>
      <trkpt lat="48.73856" lon="1.76138">
        <ele>179</ele>
        <time>2025-11-27T08:18:04Z</time>
      </trkpt>
      <trkpt lat="48.73859" lon="1.76125">
        <ele>179</ele>
        <time>2025-11-27T08:18:11Z</time>
      </trkpt>
      <trkpt lat="48.73861" lon="1.76112">
        <ele>179</ele>
        <time>2025-11-27T08:18:18Z</time>
      </trkpt>
      <trkpt lat="48.73865" lon="1.76097">
        <ele>179</ele>
        <time>2025-11-27T08:18:26Z</time>
      </trkpt>
      <trkpt lat="48.73868" lon="1.76083">
        <ele>179</ele>
        <time>2025-11-27T08:18:34Z</time>
      </trkpt>
      <trkpt lat="48.73869" lon="1.76069">
        <ele>179.4</ele>
        <time>2025-11-27T08:18:41Z</time>
      </trkpt>
      <trkpt lat="48.73872" lon="1.76055">
        <ele>179.6</ele>
        <time>2025-11-27T08:18:48Z</time>
      </trkpt>
      <trkpt lat="48.73876" lon="1.76042">
        <ele>179.7</ele>
        <time>2025-11-27T08:18:54Z</time>
      </trkpt>
      <trkpt lat="48.7388" lon="1.76029">
        <ele>180</ele>
        <time>2025-11-27T08:19:00Z</time>
      </trkpt>
      <trkpt lat="48.73883" lon="1.76016">
        <ele>180</ele>
        <time>2025-11-27T08:19:07Z</time>
      </trkpt>
      <trkpt lat="48.73885" lon="1.76001">
        <ele>180</ele>
        <time>2025-11-27T08:19:15Z</time>
      </trkpt>
      <trkpt lat="48.73888" lon="1.75987">
        <ele>180</ele>
        <time>2025-11-27T08:19:23Z</time>
      </trkpt>
      <trkpt lat="48.73891" lon="1.75973">
        <ele>179.9</ele>
        <time>2025-11-27T08:19:30Z</time>
      </trkpt>
      <trkpt lat="48.7389" lon="1.75958">
        <ele>180</ele>
        <time>2025-11-27T08:19:38Z</time>
      </trkpt>
      <trkpt lat="48.73893" lon="1.75945">
        <ele>180</ele>
        <time>2025-11-27T08:19:43Z</time>
      </trkpt>
      <trkpt lat="48.73896" lon="1.75931">
        <ele>180</ele>
        <time>2025-11-27T08:19:51Z</time>
      </trkpt>
      <trkpt lat="48.73899" lon="1.75918">
        <ele>180</ele>
        <time>2025-11-27T08:19:57Z</time>
      </trkpt>
      <trkpt lat="48.73903" lon="1.75904">
        <ele>179.8</ele>
        <time>2025-11-27T08:20:04Z</time>
      </trkpt>
      <trkpt lat="48.73905" lon="1.7589">
        <ele>179.5</ele>
        <time>2025-11-27T08:20:11Z</time>
      </trkpt>
      <trkpt lat="48.73908" lon="1.75876">
        <ele>179.3</ele>
        <time>2025-11-27T08:20:18Z</time>
      </trkpt>
      <trkpt lat="48.73911" lon="1.75863">
        <ele>179.2</ele>
        <time>2025-11-27T08:20:25Z</time>
      </trkpt>
      <trkpt lat="48.73915" lon="1.7585">
        <ele>179.1</ele>
        <time>2025-11-27T08:20:31Z</time>
      </trkpt>
      <trkpt lat="48.73918" lon="1.75835">
        <ele>179</ele>
        <time>2025-11-27T08:20:38Z</time>
      </trkpt>
      <trkpt lat="48.73921" lon="1.75821">
        <ele>179</ele>
        <time>2025-11-27T08:20:45Z</time>
      </trkpt>
      <trkpt lat="48.73923" lon="1.75807">
        <ele>179</ele>
        <time>2025-11-27T08:20:52Z</time>
      </trkpt>
      <trkpt lat="48.73926" lon="1.75792">
        <ele>179</ele>
        <time>2025-11-27T08:20:59Z</time>
      </trkpt>
      <trkpt lat="48.73929" lon="1.75778">
        <ele>179</ele>
        <time>2025-11-27T08:21:06Z</time>
      </trkpt>
      <trkpt lat="48.73932" lon="1.75764">
        <ele>179.2</ele>
        <time>2025-11-27T08:21:14Z</time>
      </trkpt>
      <trkpt lat="48.73934" lon="1.75751">
        <ele>179.4</ele>
        <time>2025-11-27T08:21:21Z</time>
      </trkpt>
      <trkpt lat="48.73936" lon="1.75736">
        <ele>179.3</ele>
        <time>2025-11-27T08:21:29Z</time>
      </trkpt>
      <trkpt lat="48.73938" lon="1.75722">
        <ele>179.2</ele>
        <time>2025-11-27T08:21:36Z</time>
      </trkpt>
      <trkpt lat="48.7394" lon="1.75707">
        <ele>179.1</ele>
        <time>2025-11-27T08:21:43Z</time>
      </trkpt>
      <trkpt lat="48.73943" lon="1.75694">
        <ele>179.1</ele>
        <time>2025-11-27T08:21:50Z</time>
      </trkpt>
      <trkpt lat="48.73946" lon="1.7568">
        <ele>179</ele>
        <time>2025-11-27T08:21:57Z</time>
      </trkpt>
      <trkpt lat="48.73949" lon="1.75666">
        <ele>179</ele>
        <time>2025-11-27T08:22:04Z</time>
      </trkpt>
      <trkpt lat="48.73951" lon="1.75652">
        <ele>179.4</ele>
        <time>2025-11-27T08:22:11Z</time>
      </trkpt>
      <trkpt lat="48.73949" lon="1.75638">
        <ele>179.8</ele>
        <time>2025-11-27T08:22:21Z</time>
      </trkpt>
      <trkpt lat="48.73942" lon="1.75627">
        <ele>180</ele>
        <time>2025-11-27T08:22:33Z</time>
      </trkpt>
      <trkpt lat="48.73933" lon="1.75623">
        <ele>180</ele>
        <time>2025-11-27T08:22:41Z</time>
      </trkpt>
      <trkpt lat="48.73924" lon="1.75621">
        <ele>180</ele>
        <time>2025-11-27T08:22:48Z</time>
      </trkpt>
      <trkpt lat="48.73914" lon="1.75618">
        <ele>180</ele>
        <time>2025-11-27T08:22:55Z</time>
      </trkpt>
      <trkpt lat="48.73905" lon="1.75614">
        <ele>180</ele>
        <time>2025-11-27T08:23:03Z</time>
      </trkpt>
      <trkpt lat="48.73895" lon="1.75611">
        <ele>180</ele>
        <time>2025-11-27T08:23:10Z</time>
      </trkpt>
      <trkpt lat="48.73886" lon="1.75607">
        <ele>180</ele>
        <time>2025-11-27T08:23:18Z</time>
      </trkpt>
      <trkpt lat="48.73876" lon="1.75606">
        <ele>180</ele>
        <time>2025-11-27T08:23:26Z</time>
      </trkpt>
      <trkpt lat="48.73867" lon="1.75602">
        <ele>180</ele>
        <time>2025-11-27T08:23:33Z</time>
      </trkpt>
      <trkpt lat="48.73858" lon="1.756">
        <ele>180</ele>
        <time>2025-11-27T08:23:40Z</time>
      </trkpt>
      <trkpt lat="48.73849" lon="1.75596">
        <ele>180</ele>
        <time>2025-11-27T08:23:47Z</time>
      </trkpt>
      <trkpt lat="48.73839" lon="1.75592">
        <ele>180</ele>
        <time>2025-11-27T08:23:54Z</time>
      </trkpt>
      <trkpt lat="48.7383" lon="1.75589">
        <ele>179.9</ele>
        <time>2025-11-27T08:24:01Z</time>
      </trkpt>
      <trkpt lat="48.7382" lon="1.75586">
        <ele>179.6</ele>
        <time>2025-11-27T08:24:08Z</time>
      </trkpt>
      <trkpt lat="48.7381" lon="1.75583">
        <ele>179.2</ele>
        <time>2025-11-27T08:24:15Z</time>
      </trkpt>
      <trkpt lat="48.73801" lon="1.75579">
        <ele>179</ele>
        <time>2025-11-27T08:24:22Z</time>
      </trkpt>
      <trkpt lat="48.73792" lon="1.75573">
        <ele>179</ele>
        <time>2025-11-27T08:24:29Z</time>
      </trkpt>
      <trkpt lat="48.73784" lon="1.75571">
        <ele>179</ele>
        <time>2025-11-27T08:24:36Z</time>
      </trkpt>
      <trkpt lat="48.73773" lon="1.75569">
        <ele>179</ele>
        <time>2025-11-27T08:24:44Z</time>
      </trkpt>
      <trkpt lat="48.73763" lon="1.75568">
        <ele>179</ele>
        <time>2025-11-27T08:24:52Z</time>
      </trkpt>
      <trkpt lat="48.73753" lon="1.75565">
        <ele>179</ele>
        <time>2025-11-27T08:25:00Z</time>
      </trkpt>
      <trkpt lat="48.73744" lon="1.75562">
        <ele>179</ele>
        <time>2025-11-27T08:25:08Z</time>
      </trkpt>
      <trkpt lat="48.73735" lon="1.75556">
        <ele>179</ele>
        <time>2025-11-27T08:25:17Z</time>
      </trkpt>
      <trkpt lat="48.73726" lon="1.75553">
        <ele>178.9</ele>
        <time>2025-11-27T08:25:25Z</time>
      </trkpt>
      <trkpt lat="48.73716" lon="1.75553">
        <ele>178.9</ele>
        <time>2025-11-27T08:25:35Z</time>
      </trkpt>
      <trkpt lat="48.73707" lon="1.75551">
        <ele>178.8</ele>
        <time>2025-11-27T08:25:44Z</time>
      </trkpt>
      <trkpt lat="48.73696" lon="1.75551">
        <ele>178.8</ele>
        <time>2025-11-27T08:25:54Z</time>
      </trkpt>
      <trkpt lat="48.73687" lon="1.75545">
        <ele>178.8</ele>
        <time>2025-11-27T08:26:02Z</time>
      </trkpt>
      <trkpt lat="48.73678" lon="1.75542">
        <ele>178.8</ele>
        <time>2025-11-27T08:26:10Z</time>
      </trkpt>
      <trkpt lat="48.73668" lon="1.75539">
        <ele>178.8</ele>
        <time>2025-11-27T08:26:19Z</time>
      </trkpt>
      <trkpt lat="48.73658" lon="1.75538">
        <ele>178.7</ele>
        <time>2025-11-27T08:26:27Z</time>
      </trkpt>
      <trkpt lat="48.73649" lon="1.75538">
        <ele>178.7</ele>
        <time>2025-11-27T08:26:35Z</time>
      </trkpt>
      <trkpt lat="48.73639" lon="1.75539">
        <ele>178.8</ele>
        <time>2025-11-27T08:26:43Z</time>
      </trkpt>
      <trkpt lat="48.7363" lon="1.75541">
        <ele>178.8</ele>
        <time>2025-11-27T08:26:50Z</time>
      </trkpt>
      <trkpt lat="48.73621" lon="1.75541">
        <ele>178.7</ele>
        <time>2025-11-27T08:26:58Z</time>
      </trkpt>
      <trkpt lat="48.73611" lon="1.75546">
        <ele>178.7</ele>
        <time>2025-11-27T08:27:06Z</time>
      </trkpt>
      <trkpt lat="48.73604" lon="1.75537">
        <ele>178.1</ele>
        <time>2025-11-27T08:27:15Z</time>
      </trkpt>
      <trkpt lat="48.73597" lon="1.75547">
        <ele>178.5</ele>
        <time>2025-11-27T08:27:47Z</time>
      </trkpt>
      <trkpt lat="48.73588" lon="1.75553">
        <ele>178.8</ele>
        <time>2025-11-27T08:27:54Z</time>
      </trkpt>
      <trkpt lat="48.73579" lon="1.75557">
        <ele>179.1</ele>
        <time>2025-11-27T08:28:01Z</time>
      </trkpt>
      <trkpt lat="48.7357" lon="1.75561">
        <ele>179.4</ele>
        <time>2025-11-27T08:28:08Z</time>
      </trkpt>
      <trkpt lat="48.73561" lon="1.75568">
        <ele>179.6</ele>
        <time>2025-11-27T08:28:15Z</time>
      </trkpt>
      <trkpt lat="48.73552" lon="1.75572">
        <ele>179.6</ele>
        <time>2025-11-27T08:28:23Z</time>
      </trkpt>
      <trkpt lat="48.73544" lon="1.75579">
        <ele>179.8</ele>
        <time>2025-11-27T08:28:31Z</time>
      </trkpt>
      <trkpt lat="48.73535" lon="1.75584">
        <ele>180</ele>
        <time>2025-11-27T08:28:39Z</time>
      </trkpt>
      <trkpt lat="48.73527" lon="1.7559">
        <ele>180.2</ele>
        <time>2025-11-27T08:28:46Z</time>
      </trkpt>
      <trkpt lat="48.73517" lon="1.75596">
        <ele>180.3</ele>
        <time>2025-11-27T08:28:54Z</time>
      </trkpt>
      <trkpt lat="48.73509" lon="1.75603">
        <ele>180.2</ele>
        <time>2025-11-27T08:29:00Z</time>
      </trkpt>
      <trkpt lat="48.73501" lon="1.75611">
        <ele>180</ele>
        <time>2025-11-27T08:29:07Z</time>
      </trkpt>
      <trkpt lat="48.73493" lon="1.75618">
        <ele>180.4</ele>
        <time>2025-11-27T08:29:14Z</time>
      </trkpt>
      <trkpt lat="48.73484" lon="1.75624">
        <ele>180.4</ele>
        <time>2025-11-27T08:29:20Z</time>
      </trkpt>
      <trkpt lat="48.73475" lon="1.7563">
        <ele>180.1</ele>
        <time>2025-11-27T08:29:27Z</time>
      </trkpt>
      <trkpt lat="48.73466" lon="1.75639">
        <ele>180</ele>
        <time>2025-11-27T08:29:34Z</time>
      </trkpt>
      <trkpt lat="48.73457" lon="1.75646">
        <ele>180.1</ele>
        <time>2025-11-27T08:29:41Z</time>
      </trkpt>
      <trkpt lat="48.73449" lon="1.75651">
        <ele>180.1</ele>
        <time>2025-11-27T08:29:47Z</time>
      </trkpt>
      <trkpt lat="48.7344" lon="1.75659">
        <ele>180</ele>
        <time>2025-11-27T08:29:54Z</time>
      </trkpt>
      <trkpt lat="48.73431" lon="1.75665">
        <ele>180</ele>
        <time>2025-11-27T08:30:01Z</time>
      </trkpt>
      <trkpt lat="48.73422" lon="1.75671">
        <ele>180.1</ele>
        <time>2025-11-27T08:30:08Z</time>
      </trkpt>
      <trkpt lat="48.73413" lon="1.75678">
        <ele>180.3</ele>
        <time>2025-11-27T08:30:15Z</time>
      </trkpt>
      <trkpt lat="48.73404" lon="1.75683">
        <ele>180</ele>
        <time>2025-11-27T08:30:22Z</time>
      </trkpt>
      <trkpt lat="48.73395" lon="1.7569">
        <ele>179.5</ele>
        <time>2025-11-27T08:30:29Z</time>
      </trkpt>
      <trkpt lat="48.73387" lon="1.75696">
        <ele>179</ele>
        <time>2025-11-27T08:30:35Z</time>
      </trkpt>
      <trkpt lat="48.73378" lon="1.75701">
        <ele>179</ele>
        <time>2025-11-27T08:30:41Z</time>
      </trkpt>
      <trkpt lat="48.7337" lon="1.75708">
        <ele>179</ele>
        <time>2025-11-27T08:30:47Z</time>
      </trkpt>
      <trkpt lat="48.73361" lon="1.75714">
        <ele>179</ele>
        <time>2025-11-27T08:30:54Z</time>
      </trkpt>
      <trkpt lat="48.73352" lon="1.7572">
        <ele>178.7</ele>
        <time>2025-11-27T08:31:01Z</time>
      </trkpt>
      <trkpt lat="48.73343" lon="1.75728">
        <ele>178.4</ele>
        <time>2025-11-27T08:31:08Z</time>
      </trkpt>
      <trkpt lat="48.73336" lon="1.75735">
        <ele>178.1</ele>
        <time>2025-11-27T08:31:15Z</time>
      </trkpt>
      <trkpt lat="48.73326" lon="1.75739">
        <ele>178</ele>
        <time>2025-11-27T08:31:22Z</time>
      </trkpt>
      <trkpt lat="48.73318" lon="1.75746">
        <ele>178</ele>
        <time>2025-11-27T08:31:29Z</time>
      </trkpt>
      <trkpt lat="48.73309" lon="1.75753">
        <ele>178.1</ele>
        <time>2025-11-27T08:31:36Z</time>
      </trkpt>
      <trkpt lat="48.733" lon="1.75758">
        <ele>178.4</ele>
        <time>2025-11-27T08:31:42Z</time>
      </trkpt>
      <trkpt lat="48.73292" lon="1.75764">
        <ele>178.5</ele>
        <time>2025-11-27T08:31:48Z</time>
      </trkpt>
      <trkpt lat="48.73284" lon="1.75771">
        <ele>178.4</ele>
        <time>2025-11-27T08:31:54Z</time>
      </trkpt>
      <trkpt lat="48.73275" lon="1.75778">
        <ele>177.9</ele>
        <time>2025-11-27T08:32:01Z</time>
      </trkpt>
      <trkpt lat="48.73266" lon="1.75784">
        <ele>177.8</ele>
        <time>2025-11-27T08:32:08Z</time>
      </trkpt>
      <trkpt lat="48.73257" lon="1.75792">
        <ele>177.8</ele>
        <time>2025-11-27T08:32:15Z</time>
      </trkpt>
      <trkpt lat="48.73249" lon="1.75798">
        <ele>177.7</ele>
        <time>2025-11-27T08:32:22Z</time>
      </trkpt>
      <trkpt lat="48.7324" lon="1.75803">
        <ele>177.6</ele>
        <time>2025-11-27T08:32:29Z</time>
      </trkpt>
      <trkpt lat="48.73232" lon="1.75808">
        <ele>177.4</ele>
        <time>2025-11-27T08:32:36Z</time>
      </trkpt>
      <trkpt lat="48.73223" lon="1.75815">
        <ele>177.4</ele>
        <time>2025-11-27T08:32:43Z</time>
      </trkpt>
      <trkpt lat="48.73216" lon="1.75822">
        <ele>177.5</ele>
        <time>2025-11-27T08:32:50Z</time>
      </trkpt>
      <trkpt lat="48.73207" lon="1.75828">
        <ele>177.3</ele>
        <time>2025-11-27T08:32:57Z</time>
      </trkpt>
      <trkpt lat="48.73199" lon="1.75834">
        <ele>177.2</ele>
        <time>2025-11-27T08:33:04Z</time>
      </trkpt>
      <trkpt lat="48.7319" lon="1.75842">
        <ele>177.3</ele>
        <time>2025-11-27T08:33:11Z</time>
      </trkpt>
      <trkpt lat="48.73182" lon="1.75848">
        <ele>177.3</ele>
        <time>2025-11-27T08:33:18Z</time>
      </trkpt>
      <trkpt lat="48.73173" lon="1.75855">
        <ele>177.2</ele>
        <time>2025-11-27T08:33:26Z</time>
      </trkpt>
      <trkpt lat="48.73164" lon="1.75861">
        <ele>177</ele>
        <time>2025-11-27T08:33:33Z</time>
      </trkpt>
      <trkpt lat="48.73155" lon="1.75867">
        <ele>177.1</ele>
        <time>2025-11-27T08:33:40Z</time>
      </trkpt>
      <trkpt lat="48.73147" lon="1.75875">
        <ele>177.1</ele>
        <time>2025-11-27T08:33:46Z</time>
      </trkpt>
      <trkpt lat="48.73137" lon="1.75881">
        <ele>177</ele>
        <time>2025-11-27T08:33:53Z</time>
      </trkpt>
      <trkpt lat="48.73129" lon="1.75887">
        <ele>177</ele>
        <time>2025-11-27T08:34:00Z</time>
      </trkpt>
      <trkpt lat="48.7312" lon="1.75893">
        <ele>177</ele>
        <time>2025-11-27T08:34:07Z</time>
      </trkpt>
      <trkpt lat="48.73111" lon="1.759">
        <ele>177</ele>
        <time>2025-11-27T08:34:13Z</time>
      </trkpt>
      <trkpt lat="48.73102" lon="1.75906">
        <ele>176.7</ele>
        <time>2025-11-27T08:34:19Z</time>
      </trkpt>
      <trkpt lat="48.73094" lon="1.75912">
        <ele>176.4</ele>
        <time>2025-11-27T08:34:25Z</time>
      </trkpt>
      <trkpt lat="48.73085" lon="1.75918">
        <ele>176.1</ele>
        <time>2025-11-27T08:34:31Z</time>
      </trkpt>
      <trkpt lat="48.73077" lon="1.75924">
        <ele>175.9</ele>
        <time>2025-11-27T08:34:37Z</time>
      </trkpt>
      <trkpt lat="48.73067" lon="1.7593">
        <ele>175.7</ele>
        <time>2025-11-27T08:34:44Z</time>
      </trkpt>
      <trkpt lat="48.73059" lon="1.75935">
        <ele>175.4</ele>
        <time>2025-11-27T08:34:50Z</time>
      </trkpt>
      <trkpt lat="48.73051" lon="1.75943">
        <ele>174.9</ele>
        <time>2025-11-27T08:34:57Z</time>
      </trkpt>
      <trkpt lat="48.73042" lon="1.7595">
        <ele>174.6</ele>
        <time>2025-11-27T08:35:05Z</time>
      </trkpt>
      <trkpt lat="48.73033" lon="1.75956">
        <ele>174.3</ele>
        <time>2025-11-27T08:35:13Z</time>
      </trkpt>
      <trkpt lat="48.73027" lon="1.75945">
        <ele>174</ele>
        <time>2025-11-27T08:35:20Z</time>
      </trkpt>
      <trkpt lat="48.73028" lon="1.75931">
        <ele>174</ele>
        <time>2025-11-27T08:35:26Z</time>
      </trkpt>
      <trkpt lat="48.73029" lon="1.75917">
        <ele>174.1</ele>
        <time>2025-11-27T08:35:33Z</time>
      </trkpt>
      <trkpt lat="48.73033" lon="1.75904">
        <ele>174.7</ele>
        <time>2025-11-27T08:35:41Z</time>
      </trkpt>
      <trkpt lat="48.73032" lon="1.7589">
        <ele>175.1</ele>
        <time>2025-11-27T08:35:51Z</time>
      </trkpt>
      <trkpt lat="48.73035" lon="1.75875">
        <ele>175.3</ele>
        <time>2025-11-27T08:35:58Z</time>
      </trkpt>
      <trkpt lat="48.73036" lon="1.7586">
        <ele>175.3</ele>
        <time>2025-11-27T08:36:05Z</time>
      </trkpt>
      <trkpt lat="48.73038" lon="1.75846">
        <ele>175.4</ele>
        <time>2025-11-27T08:36:13Z</time>
      </trkpt>
      <trkpt lat="48.73039" lon="1.7583">
        <ele>175.4</ele>
        <time>2025-11-27T08:36:20Z</time>
      </trkpt>
      <trkpt lat="48.73039" lon="1.75815">
        <ele>175.4</ele>
        <time>2025-11-27T08:36:27Z</time>
      </trkpt>
      <trkpt lat="48.73039" lon="1.75801">
        <ele>175.5</ele>
        <time>2025-11-27T08:36:34Z</time>
      </trkpt>
      <trkpt lat="48.73041" lon="1.75786">
        <ele>175.8</ele>
        <time>2025-11-27T08:36:41Z</time>
      </trkpt>
      <trkpt lat="48.73041" lon="1.75771">
        <ele>176</ele>
        <time>2025-11-27T08:36:48Z</time>
      </trkpt>
      <trkpt lat="48.73042" lon="1.75757">
        <ele>176</ele>
        <time>2025-11-27T08:36:54Z</time>
      </trkpt>
      <trkpt lat="48.73043" lon="1.75741">
        <ele>176</ele>
        <time>2025-11-27T08:37:01Z</time>
      </trkpt>
      <trkpt lat="48.73044" lon="1.75727">
        <ele>176</ele>
        <time>2025-11-27T08:37:07Z</time>
      </trkpt>
      <trkpt lat="48.73044" lon="1.75713">
        <ele>176</ele>
        <time>2025-11-27T08:37:14Z</time>
      </trkpt>
      <trkpt lat="48.73046" lon="1.75699">
        <ele>176</ele>
        <time>2025-11-27T08:37:21Z</time>
      </trkpt>
      <trkpt lat="48.73048" lon="1.75683">
        <ele>176</ele>
        <time>2025-11-27T08:37:28Z</time>
      </trkpt>
      <trkpt lat="48.73048" lon="1.7567">
        <ele>176</ele>
        <time>2025-11-27T08:37:34Z</time>
      </trkpt>
      <trkpt lat="48.73049" lon="1.75656">
        <ele>176</ele>
        <time>2025-11-27T08:37:41Z</time>
      </trkpt>
      <trkpt lat="48.73052" lon="1.75641">
        <ele>176</ele>
        <time>2025-11-27T08:37:48Z</time>
      </trkpt>
      <trkpt lat="48.73053" lon="1.75628">
        <ele>176</ele>
        <time>2025-11-27T08:37:55Z</time>
      </trkpt>
      <trkpt lat="48.73053" lon="1.75613">
        <ele>176</ele>
        <time>2025-11-27T08:38:02Z</time>
      </trkpt>
      <trkpt lat="48.73055" lon="1.756">
        <ele>175.6</ele>
        <time>2025-11-27T08:38:08Z</time>
      </trkpt>
      <trkpt lat="48.73056" lon="1.75584">
        <ele>175</ele>
        <time>2025-11-27T08:38:15Z</time>
      </trkpt>
      <trkpt lat="48.73057" lon="1.75569">
        <ele>175</ele>
        <time>2025-11-27T08:38:22Z</time>
      </trkpt>
      <trkpt lat="48.73058" lon="1.75553">
        <ele>175</ele>
        <time>2025-11-27T08:38:29Z</time>
      </trkpt>
      <trkpt lat="48.73058" lon="1.75539">
        <ele>175</ele>
        <time>2025-11-27T08:38:35Z</time>
      </trkpt>
      <trkpt lat="48.73058" lon="1.75524">
        <ele>175</ele>
        <time>2025-11-27T08:38:41Z</time>
      </trkpt>
      <trkpt lat="48.73059" lon="1.75509">
        <ele>175</ele>
        <time>2025-11-27T08:38:48Z</time>
      </trkpt>
      <trkpt lat="48.7306" lon="1.75495">
        <ele>175</ele>
        <time>2025-11-27T08:38:54Z</time>
      </trkpt>
      <trkpt lat="48.73061" lon="1.75479">
        <ele>175</ele>
        <time>2025-11-27T08:39:01Z</time>
      </trkpt>
      <trkpt lat="48.73061" lon="1.75464">
        <ele>174.7</ele>
        <time>2025-11-27T08:39:08Z</time>
      </trkpt>
      <trkpt lat="48.73061" lon="1.7545">
        <ele>174.2</ele>
        <time>2025-11-27T08:39:15Z</time>
      </trkpt>
      <trkpt lat="48.73062" lon="1.75435">
        <ele>173.7</ele>
        <time>2025-11-27T08:39:22Z</time>
      </trkpt>
      <trkpt lat="48.7306" lon="1.75421">
        <ele>173.3</ele>
        <time>2025-11-27T08:39:30Z</time>
      </trkpt>
      <trkpt lat="48.7306" lon="1.75407">
        <ele>172.1</ele>
        <time>2025-11-27T08:39:38Z</time>
      </trkpt>
      <trkpt lat="48.7306" lon="1.75393">
        <ele>170.8</ele>
        <time>2025-11-27T08:40:05Z</time>
      </trkpt>
      <trkpt lat="48.7306" lon="1.75379">
        <ele>169.3</ele>
        <time>2025-11-27T08:40:12Z</time>
      </trkpt>
      <trkpt lat="48.73059" lon="1.75365">
        <ele>167.9</ele>
        <time>2025-11-27T08:40:19Z</time>
      </trkpt>
      <trkpt lat="48.73059" lon="1.75351">
        <ele>167.1</ele>
        <time>2025-11-27T08:40:27Z</time>
      </trkpt>
      <trkpt lat="48.73061" lon="1.75336">
        <ele>166.8</ele>
        <time>2025-11-27T08:40:35Z</time>
      </trkpt>
      <trkpt lat="48.73062" lon="1.75322">
        <ele>166.5</ele>
        <time>2025-11-27T08:40:42Z</time>
      </trkpt>
      <trkpt lat="48.73061" lon="1.75307">
        <ele>165.9</ele>
        <time>2025-11-27T08:40:49Z</time>
      </trkpt>
      <trkpt lat="48.73062" lon="1.75293">
        <ele>165.1</ele>
        <time>2025-11-27T08:40:56Z</time>
      </trkpt>
      <trkpt lat="48.73062" lon="1.75277">
        <ele>164.1</ele>
        <time>2025-11-27T08:41:03Z</time>
      </trkpt>
      <trkpt lat="48.73062" lon="1.75262">
        <ele>163.1</ele>
        <time>2025-11-27T08:41:10Z</time>
      </trkpt>
      <trkpt lat="48.73062" lon="1.75247">
        <ele>161.9</ele>
        <time>2025-11-27T08:41:17Z</time>
      </trkpt>
      <trkpt lat="48.73063" lon="1.75233">
        <ele>161.3</ele>
        <time>2025-11-27T08:41:24Z</time>
      </trkpt>
      <trkpt lat="48.73063" lon="1.75218">
        <ele>160.6</ele>
        <time>2025-11-27T08:41:31Z</time>
      </trkpt>
      <trkpt lat="48.73064" lon="1.75204">
        <ele>159.6</ele>
        <time>2025-11-27T08:41:38Z</time>
      </trkpt>
      <trkpt lat="48.73068" lon="1.7519">
        <ele>159.1</ele>
        <time>2025-11-27T08:41:46Z</time>
      </trkpt>
      <trkpt lat="48.73071" lon="1.75177">
        <ele>158.7</ele>
        <time>2025-11-27T08:41:54Z</time>
      </trkpt>
      <trkpt lat="48.73069" lon="1.75163">
        <ele>157.8</ele>
        <time>2025-11-27T08:42:06Z</time>
      </trkpt>
      <trkpt lat="48.73068" lon="1.7515">
        <ele>157</ele>
        <time>2025-11-27T08:42:13Z</time>
      </trkpt>
      <trkpt lat="48.73067" lon="1.75135">
        <ele>156.2</ele>
        <time>2025-11-27T08:42:22Z</time>
      </trkpt>
      <trkpt lat="48.73067" lon="1.75119">
        <ele>155.3</ele>
        <time>2025-11-27T08:42:31Z</time>
      </trkpt>
      <trkpt lat="48.73067" lon="1.75105">
        <ele>154.5</ele>
        <time>2025-11-27T08:42:39Z</time>
      </trkpt>
      <trkpt lat="48.73066" lon="1.75091">
        <ele>153.7</ele>
        <time>2025-11-27T08:42:47Z</time>
      </trkpt>
      <trkpt lat="48.73069" lon="1.75078">
        <ele>153.3</ele>
        <time>2025-11-27T08:42:56Z</time>
      </trkpt>
      <trkpt lat="48.73065" lon="1.75064">
        <ele>152.6</ele>
        <time>2025-11-27T08:43:02Z</time>
      </trkpt>
      <trkpt lat="48.73066" lon="1.75049">
        <ele>152</ele>
        <time>2025-11-27T08:43:09Z</time>
      </trkpt>
      <trkpt lat="48.73064" lon="1.75035">
        <ele>151.3</ele>
        <time>2025-11-27T08:43:18Z</time>
      </trkpt>
      <trkpt lat="48.73065" lon="1.7502">
        <ele>150.7</ele>
        <time>2025-11-27T08:43:27Z</time>
      </trkpt>
      <trkpt lat="48.73065" lon="1.75004">
        <ele>150.2</ele>
        <time>2025-11-27T08:43:35Z</time>
      </trkpt>
      <trkpt lat="48.73067" lon="1.7499">
        <ele>149.6</ele>
        <time>2025-11-27T08:43:42Z</time>
      </trkpt>
      <trkpt lat="48.73069" lon="1.74974">
        <ele>149.1</ele>
        <time>2025-11-27T08:43:49Z</time>
      </trkpt>
      <trkpt lat="48.73069" lon="1.7496">
        <ele>148.6</ele>
        <time>2025-11-27T08:43:56Z</time>
      </trkpt>
      <trkpt lat="48.73065" lon="1.74946">
        <ele>148.1</ele>
        <time>2025-11-27T08:44:04Z</time>
      </trkpt>
      <trkpt lat="48.73062" lon="1.74932">
        <ele>147.2</ele>
        <time>2025-11-27T08:44:11Z</time>
      </trkpt>
      <trkpt lat="48.73058" lon="1.74919">
        <ele>146.2</ele>
        <time>2025-11-27T08:44:19Z</time>
      </trkpt>
      <trkpt lat="48.73054" lon="1.74905">
        <ele>145.1</ele>
        <time>2025-11-27T08:44:27Z</time>
      </trkpt>
      <trkpt lat="48.73056" lon="1.74891">
        <ele>144.2</ele>
        <time>2025-11-27T08:44:34Z</time>
      </trkpt>
      <trkpt lat="48.73059" lon="1.74878">
        <ele>143.9</ele>
        <time>2025-11-27T08:44:41Z</time>
      </trkpt>
      <trkpt lat="48.7306" lon="1.74863">
        <ele>143.4</ele>
        <time>2025-11-27T08:44:48Z</time>
      </trkpt>
      <trkpt lat="48.7306" lon="1.74847">
        <ele>142.7</ele>
        <time>2025-11-27T08:44:55Z</time>
      </trkpt>
      <trkpt lat="48.73058" lon="1.74833">
        <ele>142.1</ele>
        <time>2025-11-27T08:45:02Z</time>
      </trkpt>
      <trkpt lat="48.73055" lon="1.74819">
        <ele>142</ele>
        <time>2025-11-27T08:45:09Z</time>
      </trkpt>
      <trkpt lat="48.73053" lon="1.74804">
        <ele>142.2</ele>
        <time>2025-11-27T08:45:16Z</time>
      </trkpt>
      <trkpt lat="48.73051" lon="1.74789">
        <ele>142.4</ele>
        <time>2025-11-27T08:45:23Z</time>
      </trkpt>
      <trkpt lat="48.73048" lon="1.74775">
        <ele>142.9</ele>
        <time>2025-11-27T08:45:30Z</time>
      </trkpt>
      <trkpt lat="48.73045" lon="1.7476">
        <ele>143.5</ele>
        <time>2025-11-27T08:45:37Z</time>
      </trkpt>
      <trkpt lat="48.73043" lon="1.74745">
        <ele>144</ele>
        <time>2025-11-27T08:45:44Z</time>
      </trkpt>
      <trkpt lat="48.73041" lon="1.74731">
        <ele>144.4</ele>
        <time>2025-11-27T08:45:51Z</time>
      </trkpt>
      <trkpt lat="48.73039" lon="1.74718">
        <ele>144.9</ele>
        <time>2025-11-27T08:45:58Z</time>
      </trkpt>
      <trkpt lat="48.73037" lon="1.74704">
        <ele>145.2</ele>
        <time>2025-11-27T08:46:04Z</time>
      </trkpt>
      <trkpt lat="48.73033" lon="1.7469">
        <ele>145.4</ele>
        <time>2025-11-27T08:46:11Z</time>
      </trkpt>
      <trkpt lat="48.7303" lon="1.74676">
        <ele>145.2</ele>
        <time>2025-11-27T08:46:21Z</time>
      </trkpt>
      <trkpt lat="48.73023" lon="1.74664">
        <ele>145.1</ele>
        <time>2025-11-27T08:46:27Z</time>
      </trkpt>
      <trkpt lat="48.73017" lon="1.74652">
        <ele>144.7</ele>
        <time>2025-11-27T08:46:33Z</time>
      </trkpt>
      <trkpt lat="48.7301" lon="1.74641">
        <ele>144.4</ele>
        <time>2025-11-27T08:46:40Z</time>
      </trkpt>
      <trkpt lat="48.73003" lon="1.7463">
        <ele>144.2</ele>
        <time>2025-11-27T08:46:47Z</time>
      </trkpt>
      <trkpt lat="48.72996" lon="1.7462">
        <ele>143.6</ele>
        <time>2025-11-27T08:46:54Z</time>
      </trkpt>
      <trkpt lat="48.7299" lon="1.7461">
        <ele>142.9</ele>
        <time>2025-11-27T08:47:01Z</time>
      </trkpt>
      <trkpt lat="48.72982" lon="1.74602">
        <ele>142.3</ele>
        <time>2025-11-27T08:47:08Z</time>
      </trkpt>
      <trkpt lat="48.72975" lon="1.74593">
        <ele>141.7</ele>
        <time>2025-11-27T08:47:15Z</time>
      </trkpt>
      <trkpt lat="48.72971" lon="1.74579">
        <ele>140.9</ele>
        <time>2025-11-27T08:47:23Z</time>
      </trkpt>
      <trkpt lat="48.7297" lon="1.74564">
        <ele>140.9</ele>
        <time>2025-11-27T08:47:31Z</time>
      </trkpt>
      <trkpt lat="48.72964" lon="1.74552">
        <ele>140.5</ele>
        <time>2025-11-27T08:47:39Z</time>
      </trkpt>
      <trkpt lat="48.72963" lon="1.74538">
        <ele>140.5</ele>
        <time>2025-11-27T08:47:47Z</time>
      </trkpt>
      <trkpt lat="48.72971" lon="1.74533">
        <ele>141</ele>
        <time>2025-11-27T08:48:23Z</time>
      </trkpt>
      <trkpt lat="48.72974" lon="1.7452">
        <ele>140.6</ele>
        <time>2025-11-27T08:51:31Z</time>
      </trkpt>
      <trkpt lat="48.72981" lon="1.74511">
        <ele>139.8</ele>
        <time>2025-11-27T08:51:40Z</time>
      </trkpt>
      <trkpt lat="48.72984" lon="1.74498">
        <ele>139.2</ele>
        <time>2025-11-27T08:51:48Z</time>
      </trkpt>
      <trkpt lat="48.72993" lon="1.74492">
        <ele>138.5</ele>
        <time>2025-11-27T08:51:57Z</time>
      </trkpt>
      <trkpt lat="48.73002" lon="1.74487">
        <ele>137.9</ele>
        <time>2025-11-27T08:52:06Z</time>
      </trkpt>
      <trkpt lat="48.73011" lon="1.74482">
        <ele>137.3</ele>
        <time>2025-11-27T08:52:14Z</time>
      </trkpt>
      <trkpt lat="48.7302" lon="1.74475">
        <ele>136.6</ele>
        <time>2025-11-27T08:52:23Z</time>
      </trkpt>
      <trkpt lat="48.7303" lon="1.74472">
        <ele>136</ele>
        <time>2025-11-27T08:52:30Z</time>
      </trkpt>
      <trkpt lat="48.73038" lon="1.74468">
        <ele>135.9</ele>
        <time>2025-11-27T08:52:36Z</time>
      </trkpt>
      <trkpt lat="48.73046" lon="1.7446">
        <ele>135.6</ele>
        <time>2025-11-27T08:52:41Z</time>
      </trkpt>
      <trkpt lat="48.73046" lon="1.74445">
        <ele>135</ele>
        <time>2025-11-27T08:52:50Z</time>
      </trkpt>
      <trkpt lat="48.73042" lon="1.74431">
        <ele>135.3</ele>
        <time>2025-11-27T08:52:58Z</time>
      </trkpt>
      <trkpt lat="48.73039" lon="1.74417">
        <ele>135.4</ele>
        <time>2025-11-27T08:53:06Z</time>
      </trkpt>
      <trkpt lat="48.73037" lon="1.74403">
        <ele>135.3</ele>
        <time>2025-11-27T08:53:13Z</time>
      </trkpt>
      <trkpt lat="48.73037" lon="1.74389">
        <ele>135.3</ele>
        <time>2025-11-27T08:53:19Z</time>
      </trkpt>
      <trkpt lat="48.73036" lon="1.74374">
        <ele>135.1</ele>
        <time>2025-11-27T08:53:26Z</time>
      </trkpt>
      <trkpt lat="48.73035" lon="1.7436">
        <ele>135</ele>
        <time>2025-11-27T08:53:33Z</time>
      </trkpt>
      <trkpt lat="48.73034" lon="1.74345">
        <ele>134.6</ele>
        <time>2025-11-27T08:53:39Z</time>
      </trkpt>
      <trkpt lat="48.73034" lon="1.7433">
        <ele>134.2</ele>
        <time>2025-11-27T08:53:47Z</time>
      </trkpt>
      <trkpt lat="48.73031" lon="1.74317">
        <ele>134</ele>
        <time>2025-11-27T08:53:54Z</time>
      </trkpt>
      <trkpt lat="48.7303" lon="1.74303">
        <ele>134</ele>
        <time>2025-11-27T08:54:01Z</time>
      </trkpt>
      <trkpt lat="48.73028" lon="1.74289">
        <ele>134</ele>
        <time>2025-11-27T08:54:07Z</time>
      </trkpt>
      <trkpt lat="48.73026" lon="1.74275">
        <ele>134.1</ele>
        <time>2025-11-27T08:54:14Z</time>
      </trkpt>
      <trkpt lat="48.73024" lon="1.74259">
        <ele>134</ele>
        <time>2025-11-27T08:54:22Z</time>
      </trkpt>
      <trkpt lat="48.73023" lon="1.74245">
        <ele>133.9</ele>
        <time>2025-11-27T08:54:28Z</time>
      </trkpt>
      <trkpt lat="48.7302" lon="1.74231">
        <ele>133.5</ele>
        <time>2025-11-27T08:54:35Z</time>
      </trkpt>
      <trkpt lat="48.73016" lon="1.74217">
        <ele>133.3</ele>
        <time>2025-11-27T08:54:42Z</time>
      </trkpt>
      <trkpt lat="48.73014" lon="1.74202">
        <ele>133.1</ele>
        <time>2025-11-27T08:54:49Z</time>
      </trkpt>
      <trkpt lat="48.73013" lon="1.74188">
        <ele>133</ele>
        <time>2025-11-27T08:54:55Z</time>
      </trkpt>
      <trkpt lat="48.73011" lon="1.74174">
        <ele>133</ele>
        <time>2025-11-27T08:55:02Z</time>
      </trkpt>
      <trkpt lat="48.73007" lon="1.74159">
        <ele>132.8</ele>
        <time>2025-11-27T08:55:09Z</time>
      </trkpt>
      <trkpt lat="48.73007" lon="1.74144">
        <ele>132.4</ele>
        <time>2025-11-27T08:55:16Z</time>
      </trkpt>
      <trkpt lat="48.73007" lon="1.74128">
        <ele>132.1</ele>
        <time>2025-11-27T08:55:23Z</time>
      </trkpt>
      <trkpt lat="48.73006" lon="1.74112">
        <ele>132</ele>
        <time>2025-11-27T08:55:30Z</time>
      </trkpt>
      <trkpt lat="48.73005" lon="1.74097">
        <ele>132</ele>
        <time>2025-11-27T08:55:37Z</time>
      </trkpt>
      <trkpt lat="48.73004" lon="1.74082">
        <ele>132</ele>
        <time>2025-11-27T08:55:44Z</time>
      </trkpt>
      <trkpt lat="48.73004" lon="1.74068">
        <ele>132</ele>
        <time>2025-11-27T08:55:51Z</time>
      </trkpt>
      <trkpt lat="48.73002" lon="1.74053">
        <ele>132</ele>
        <time>2025-11-27T08:55:58Z</time>
      </trkpt>
      <trkpt lat="48.73003" lon="1.74038">
        <ele>131.9</ele>
        <time>2025-11-27T08:56:05Z</time>
      </trkpt>
      <trkpt lat="48.73003" lon="1.74022">
        <ele>131.9</ele>
        <time>2025-11-27T08:56:12Z</time>
      </trkpt>
      <trkpt lat="48.73003" lon="1.74008">
        <ele>131.9</ele>
        <time>2025-11-27T08:56:19Z</time>
      </trkpt>
      <trkpt lat="48.73002" lon="1.73993">
        <ele>131.9</ele>
        <time>2025-11-27T08:56:26Z</time>
      </trkpt>
      <trkpt lat="48.73" lon="1.73977">
        <ele>132</ele>
        <time>2025-11-27T08:56:33Z</time>
      </trkpt>
      <trkpt lat="48.72999" lon="1.73963">
        <ele>131.7</ele>
        <time>2025-11-27T08:56:40Z</time>
      </trkpt>
      <trkpt lat="48.72999" lon="1.73949">
        <ele>131.3</ele>
        <time>2025-11-27T08:56:47Z</time>
      </trkpt>
      <trkpt lat="48.73006" lon="1.73941">
        <ele>131</ele>
        <time>2025-11-27T08:57:02Z</time>
      </trkpt>
      <trkpt lat="48.73014" lon="1.73948">
        <ele>131.1</ele>
        <time>2025-11-27T08:57:10Z</time>
      </trkpt>
      <trkpt lat="48.73023" lon="1.73957">
        <ele>131.1</ele>
        <time>2025-11-27T08:57:19Z</time>
      </trkpt>
      <trkpt lat="48.73032" lon="1.73965">
        <ele>131</ele>
        <time>2025-11-27T08:57:27Z</time>
      </trkpt>
      <trkpt lat="48.73039" lon="1.73973">
        <ele>131</ele>
        <time>2025-11-27T08:57:35Z</time>
      </trkpt>
      <trkpt lat="48.73048" lon="1.73981">
        <ele>131</ele>
        <time>2025-11-27T08:57:42Z</time>
      </trkpt>
      <trkpt lat="48.73055" lon="1.7399">
        <ele>131</ele>
        <time>2025-11-27T08:57:49Z</time>
      </trkpt>
      <trkpt lat="48.73063" lon="1.73999">
        <ele>130.7</ele>
        <time>2025-11-27T08:57:56Z</time>
      </trkpt>
      <trkpt lat="48.73071" lon="1.74008">
        <ele>130.7</ele>
        <time>2025-11-27T08:58:07Z</time>
      </trkpt>
      <trkpt lat="48.73069" lon="1.74022">
        <ele>131.3</ele>
        <time>2025-11-27T08:58:16Z</time>
      </trkpt>
      <trkpt lat="48.73071" lon="1.74036">
        <ele>131.4</ele>
        <time>2025-11-27T08:58:25Z</time>
      </trkpt>
      <trkpt lat="48.73072" lon="1.7405">
        <ele>131.4</ele>
        <time>2025-11-27T08:58:34Z</time>
      </trkpt>
      <trkpt lat="48.73081" lon="1.74044">
        <ele>131.1</ele>
        <time>2025-11-27T08:58:43Z</time>
      </trkpt>
      <trkpt lat="48.73089" lon="1.74038">
        <ele>131.2</ele>
        <time>2025-11-27T08:58:54Z</time>
      </trkpt>
      <trkpt lat="48.73098" lon="1.7403">
        <ele>131.5</ele>
        <time>2025-11-27T08:59:07Z</time>
      </trkpt>
      <trkpt lat="48.73104" lon="1.74041">
        <ele>131.8</ele>
        <time>2025-11-27T08:59:14Z</time>
      </trkpt>
      <trkpt lat="48.73112" lon="1.74051">
        <ele>132.2</ele>
        <time>2025-11-27T08:59:21Z</time>
      </trkpt>
      <trkpt lat="48.7312" lon="1.74059">
        <ele>133.8</ele>
        <time>2025-11-27T08:59:28Z</time>
      </trkpt>
      <trkpt lat="48.73127" lon="1.7407">
        <ele>135.6</ele>
        <time>2025-11-27T08:59:36Z</time>
      </trkpt>
      <trkpt lat="48.73134" lon="1.74077">
        <ele>137.6</ele>
        <time>2025-11-27T08:59:42Z</time>
      </trkpt>
      <trkpt lat="48.73143" lon="1.74086">
        <ele>139.2</ele>
        <time>2025-11-27T08:59:50Z</time>
      </trkpt>
      <trkpt lat="48.73151" lon="1.74093">
        <ele>139.8</ele>
        <time>2025-11-27T08:59:57Z</time>
      </trkpt>
      <trkpt lat="48.73158" lon="1.74102">
        <ele>140.3</ele>
        <time>2025-11-27T09:00:04Z</time>
      </trkpt>
      <trkpt lat="48.73165" lon="1.7411">
        <ele>140.9</ele>
        <time>2025-11-27T09:00:11Z</time>
      </trkpt>
      <trkpt lat="48.73173" lon="1.74119">
        <ele>141</ele>
        <time>2025-11-27T09:00:18Z</time>
      </trkpt>
      <trkpt lat="48.73181" lon="1.74127">
        <ele>141</ele>
        <time>2025-11-27T09:00:25Z</time>
      </trkpt>
      <trkpt lat="48.73189" lon="1.74134">
        <ele>141</ele>
        <time>2025-11-27T09:00:32Z</time>
      </trkpt>
      <trkpt lat="48.73198" lon="1.74142">
        <ele>141.1</ele>
        <time>2025-11-27T09:00:39Z</time>
      </trkpt>
      <trkpt lat="48.73206" lon="1.74149">
        <ele>141.2</ele>
        <time>2025-11-27T09:00:45Z</time>
      </trkpt>
      <trkpt lat="48.73214" lon="1.74155">
        <ele>141.2</ele>
        <time>2025-11-27T09:00:51Z</time>
      </trkpt>
      <trkpt lat="48.73222" lon="1.74165">
        <ele>141</ele>
        <time>2025-11-27T09:00:58Z</time>
      </trkpt>
      <trkpt lat="48.7323" lon="1.74173">
        <ele>140.7</ele>
        <time>2025-11-27T09:01:05Z</time>
      </trkpt>
      <trkpt lat="48.73238" lon="1.74181">
        <ele>140.4</ele>
        <time>2025-11-27T09:01:12Z</time>
      </trkpt>
      <trkpt lat="48.73247" lon="1.74183">
        <ele>140.1</ele>
        <time>2025-11-27T09:01:19Z</time>
      </trkpt>
      <trkpt lat="48.73253" lon="1.74195">
        <ele>139.8</ele>
        <time>2025-11-27T09:01:27Z</time>
      </trkpt>
      <trkpt lat="48.7326" lon="1.74205">
        <ele>139.3</ele>
        <time>2025-11-27T09:01:35Z</time>
      </trkpt>
      <trkpt lat="48.73268" lon="1.74212">
        <ele>138.7</ele>
        <time>2025-11-27T09:01:42Z</time>
      </trkpt>
      <trkpt lat="48.73275" lon="1.74221">
        <ele>138.2</ele>
        <time>2025-11-27T09:01:49Z</time>
      </trkpt>
      <trkpt lat="48.73284" lon="1.74229">
        <ele>138.4</ele>
        <time>2025-11-27T09:01:56Z</time>
      </trkpt>
      <trkpt lat="48.73292" lon="1.74237">
        <ele>138.8</ele>
        <time>2025-11-27T09:02:04Z</time>
      </trkpt>
      <trkpt lat="48.73299" lon="1.74245">
        <ele>139</ele>
        <time>2025-11-27T09:02:13Z</time>
      </trkpt>
      <trkpt lat="48.73306" lon="1.74235">
        <ele>139</ele>
        <time>2025-11-27T09:02:40Z</time>
      </trkpt>
      <trkpt lat="48.73308" lon="1.74222">
        <ele>139.2</ele>
        <time>2025-11-27T09:02:48Z</time>
      </trkpt>
      <trkpt lat="48.73312" lon="1.74209">
        <ele>139.1</ele>
        <time>2025-11-27T09:02:56Z</time>
      </trkpt>
      <trkpt lat="48.73317" lon="1.74195">
        <ele>139.2</ele>
        <time>2025-11-27T09:03:04Z</time>
      </trkpt>
      <trkpt lat="48.73321" lon="1.74183">
        <ele>139</ele>
        <time>2025-11-27T09:03:12Z</time>
      </trkpt>
      <trkpt lat="48.73326" lon="1.7417">
        <ele>138.7</ele>
        <time>2025-11-27T09:03:20Z</time>
      </trkpt>
      <trkpt lat="48.73331" lon="1.74158">
        <ele>138.6</ele>
        <time>2025-11-27T09:03:28Z</time>
      </trkpt>
      <trkpt lat="48.73337" lon="1.74147">
        <ele>138.3</ele>
        <time>2025-11-27T09:03:34Z</time>
      </trkpt>
      <trkpt lat="48.73341" lon="1.74134">
        <ele>137.5</ele>
        <time>2025-11-27T09:03:40Z</time>
      </trkpt>
      <trkpt lat="48.73346" lon="1.74121">
        <ele>136.1</ele>
        <time>2025-11-27T09:03:47Z</time>
      </trkpt>
      <trkpt lat="48.73351" lon="1.74108">
        <ele>135</ele>
        <time>2025-11-27T09:03:55Z</time>
      </trkpt>
      <trkpt lat="48.73356" lon="1.74096">
        <ele>134.9</ele>
        <time>2025-11-27T09:04:02Z</time>
      </trkpt>
      <trkpt lat="48.73361" lon="1.74083">
        <ele>135</ele>
        <time>2025-11-27T09:04:10Z</time>
      </trkpt>
      <trkpt lat="48.73366" lon="1.74071">
        <ele>134.5</ele>
        <time>2025-11-27T09:04:17Z</time>
      </trkpt>
      <trkpt lat="48.73371" lon="1.74058">
        <ele>134.1</ele>
        <time>2025-11-27T09:04:25Z</time>
      </trkpt>
      <trkpt lat="48.73376" lon="1.74045">
        <ele>134.2</ele>
        <time>2025-11-27T09:04:33Z</time>
      </trkpt>
      <trkpt lat="48.73381" lon="1.74033">
        <ele>134.6</ele>
        <time>2025-11-27T09:04:41Z</time>
      </trkpt>
      <trkpt lat="48.73387" lon="1.7402">
        <ele>134.9</ele>
        <time>2025-11-27T09:04:49Z</time>
      </trkpt>
      <trkpt lat="48.73391" lon="1.74008">
        <ele>135.1</ele>
        <time>2025-11-27T09:04:56Z</time>
      </trkpt>
      <trkpt lat="48.73396" lon="1.73997">
        <ele>135.3</ele>
        <time>2025-11-27T09:05:03Z</time>
      </trkpt>
      <trkpt lat="48.734" lon="1.73983">
        <ele>135.8</ele>
        <time>2025-11-27T09:05:11Z</time>
      </trkpt>
      <trkpt lat="48.73406" lon="1.73971">
        <ele>136</ele>
        <time>2025-11-27T09:05:20Z</time>
      </trkpt>
      <trkpt lat="48.7341" lon="1.73959">
        <ele>136.4</ele>
        <time>2025-11-27T09:05:37Z</time>
      </trkpt>
      <trkpt lat="48.73416" lon="1.73947">
        <ele>136.9</ele>
        <time>2025-11-27T09:06:08Z</time>
      </trkpt>
      <trkpt lat="48.73419" lon="1.73934">
        <ele>137.5</ele>
        <time>2025-11-27T09:06:17Z</time>
      </trkpt>
      <trkpt lat="48.73423" lon="1.7392">
        <ele>138.1</ele>
        <time>2025-11-27T09:06:25Z</time>
      </trkpt>
      <trkpt lat="48.73428" lon="1.73907">
        <ele>138.8</ele>
        <time>2025-11-27T09:06:33Z</time>
      </trkpt>
      <trkpt lat="48.73434" lon="1.73894">
        <ele>139.4</ele>
        <time>2025-11-27T09:06:41Z</time>
      </trkpt>
      <trkpt lat="48.73439" lon="1.73882">
        <ele>139.9</ele>
        <time>2025-11-27T09:06:48Z</time>
      </trkpt>
      <trkpt lat="48.73443" lon="1.73868">
        <ele>140</ele>
        <time>2025-11-27T09:06:55Z</time>
      </trkpt>
      <trkpt lat="48.73448" lon="1.73855">
        <ele>140.3</ele>
        <time>2025-11-27T09:07:02Z</time>
      </trkpt>
      <trkpt lat="48.73452" lon="1.73843">
        <ele>140.9</ele>
        <time>2025-11-27T09:07:09Z</time>
      </trkpt>
      <trkpt lat="48.73457" lon="1.7383">
        <ele>141.5</ele>
        <time>2025-11-27T09:07:17Z</time>
      </trkpt>
      <trkpt lat="48.73462" lon="1.73818">
        <ele>141.6</ele>
        <time>2025-11-27T09:07:24Z</time>
      </trkpt>
      <trkpt lat="48.73467" lon="1.73804">
        <ele>141.8</ele>
        <time>2025-11-27T09:07:31Z</time>
      </trkpt>
      <trkpt lat="48.73472" lon="1.73792">
        <ele>142</ele>
        <time>2025-11-27T09:07:38Z</time>
      </trkpt>
      <trkpt lat="48.73476" lon="1.7378">
        <ele>142.3</ele>
        <time>2025-11-27T09:07:45Z</time>
      </trkpt>
      <trkpt lat="48.73482" lon="1.73767">
        <ele>142.9</ele>
        <time>2025-11-27T09:07:52Z</time>
      </trkpt>
      <trkpt lat="48.73487" lon="1.73755">
        <ele>143.5</ele>
        <time>2025-11-27T09:07:59Z</time>
      </trkpt>
      <trkpt lat="48.73491" lon="1.73742">
        <ele>143.7</ele>
        <time>2025-11-27T09:08:06Z</time>
      </trkpt>
      <trkpt lat="48.73496" lon="1.73727">
        <ele>143.9</ele>
        <time>2025-11-27T09:08:14Z</time>
      </trkpt>
      <trkpt lat="48.73502" lon="1.73716">
        <ele>144.1</ele>
        <time>2025-11-27T09:08:21Z</time>
      </trkpt>
      <trkpt lat="48.73506" lon="1.73704">
        <ele>144.2</ele>
        <time>2025-11-27T09:08:28Z</time>
      </trkpt>
      <trkpt lat="48.73512" lon="1.73691">
        <ele>144.4</ele>
        <time>2025-11-27T09:08:35Z</time>
      </trkpt>
      <trkpt lat="48.73515" lon="1.73678">
        <ele>144.5</ele>
        <time>2025-11-27T09:08:41Z</time>
      </trkpt>
      <trkpt lat="48.7352" lon="1.73667">
        <ele>144.7</ele>
        <time>2025-11-27T09:08:47Z</time>
      </trkpt>
      <trkpt lat="48.73525" lon="1.73654">
        <ele>144.9</ele>
        <time>2025-11-27T09:08:54Z</time>
      </trkpt>
      <trkpt lat="48.7353" lon="1.73642">
        <ele>145.1</ele>
        <time>2025-11-27T09:09:01Z</time>
      </trkpt>
      <trkpt lat="48.73535" lon="1.73631">
        <ele>145</ele>
        <time>2025-11-27T09:09:07Z</time>
      </trkpt>
      <trkpt lat="48.73541" lon="1.73642">
        <ele>145.5</ele>
        <time>2025-11-27T09:09:21Z</time>
      </trkpt>
      <trkpt lat="48.73549" lon="1.73647">
        <ele>146</ele>
        <time>2025-11-27T09:09:28Z</time>
      </trkpt>
      <trkpt lat="48.73559" lon="1.7365">
        <ele>146.5</ele>
        <time>2025-11-27T09:09:37Z</time>
      </trkpt>
      <trkpt lat="48.73568" lon="1.73656">
        <ele>146.8</ele>
        <time>2025-11-27T09:09:45Z</time>
      </trkpt>
      <trkpt lat="48.73577" lon="1.7366">
        <ele>146.9</ele>
        <time>2025-11-27T09:09:52Z</time>
      </trkpt>
      <trkpt lat="48.73586" lon="1.73663">
        <ele>147.1</ele>
        <time>2025-11-27T09:09:59Z</time>
      </trkpt>
      <trkpt lat="48.73595" lon="1.73669">
        <ele>147.5</ele>
        <time>2025-11-27T09:10:07Z</time>
      </trkpt>
      <trkpt lat="48.73603" lon="1.73677">
        <ele>147.8</ele>
        <time>2025-11-27T09:10:19Z</time>
      </trkpt>
      <trkpt lat="48.73612" lon="1.7368">
        <ele>148</ele>
        <time>2025-11-27T09:10:26Z</time>
      </trkpt>
      <trkpt lat="48.73621" lon="1.73683">
        <ele>148.3</ele>
        <time>2025-11-27T09:10:33Z</time>
      </trkpt>
      <trkpt lat="48.7363" lon="1.73688">
        <ele>148.7</ele>
        <time>2025-11-27T09:10:40Z</time>
      </trkpt>
      <trkpt lat="48.73639" lon="1.73692">
        <ele>149</ele>
        <time>2025-11-27T09:10:47Z</time>
      </trkpt>
      <trkpt lat="48.73649" lon="1.73696">
        <ele>149.4</ele>
        <time>2025-11-27T09:10:54Z</time>
      </trkpt>
      <trkpt lat="48.73659" lon="1.737">
        <ele>149.7</ele>
        <time>2025-11-27T09:11:01Z</time>
      </trkpt>
      <trkpt lat="48.73668" lon="1.73707">
        <ele>150.1</ele>
        <time>2025-11-27T09:11:08Z</time>
      </trkpt>
      <trkpt lat="48.73678" lon="1.7371">
        <ele>151.2</ele>
        <time>2025-11-27T09:11:15Z</time>
      </trkpt>
      <trkpt lat="48.73688" lon="1.73714">
        <ele>152.3</ele>
        <time>2025-11-27T09:11:22Z</time>
      </trkpt>
      <trkpt lat="48.73697" lon="1.73717">
        <ele>153.2</ele>
        <time>2025-11-27T09:11:29Z</time>
      </trkpt>
      <trkpt lat="48.73706" lon="1.73722">
        <ele>154.3</ele>
        <time>2025-11-27T09:11:36Z</time>
      </trkpt>
      <trkpt lat="48.73715" lon="1.73726">
        <ele>155.2</ele>
        <time>2025-11-27T09:11:44Z</time>
      </trkpt>
      <trkpt lat="48.73725" lon="1.73732">
        <ele>156.4</ele>
        <time>2025-11-27T09:11:52Z</time>
      </trkpt>
      <trkpt lat="48.7373" lon="1.73743">
        <ele>157.1</ele>
        <time>2025-11-27T09:12:04Z</time>
      </trkpt>
      <trkpt lat="48.73739" lon="1.73744">
        <ele>158.5</ele>
        <time>2025-11-27T09:12:11Z</time>
      </trkpt>
      <trkpt lat="48.73749" lon="1.73745">
        <ele>159.8</ele>
        <time>2025-11-27T09:12:20Z</time>
      </trkpt>
      <trkpt lat="48.73758" lon="1.7375">
        <ele>160.9</ele>
        <time>2025-11-27T09:12:28Z</time>
      </trkpt>
      <trkpt lat="48.73767" lon="1.73753">
        <ele>161.9</ele>
        <time>2025-11-27T09:12:36Z</time>
      </trkpt>
      <trkpt lat="48.73777" lon="1.73756">
        <ele>163.1</ele>
        <time>2025-11-27T09:12:44Z</time>
      </trkpt>
      <trkpt lat="48.73785" lon="1.7376">
        <ele>164.4</ele>
        <time>2025-11-27T09:12:51Z</time>
      </trkpt>
      <trkpt lat="48.73794" lon="1.73765">
        <ele>165.6</ele>
        <time>2025-11-27T09:12:59Z</time>
      </trkpt>
      <trkpt lat="48.73804" lon="1.7377">
        <ele>166.8</ele>
        <time>2025-11-27T09:13:08Z</time>
      </trkpt>
      <trkpt lat="48.73812" lon="1.73774">
        <ele>167.5</ele>
        <time>2025-11-27T09:13:16Z</time>
      </trkpt>
      <trkpt lat="48.73822" lon="1.73778">
        <ele>168.2</ele>
        <time>2025-11-27T09:13:24Z</time>
      </trkpt>
      <trkpt lat="48.73831" lon="1.73783">
        <ele>168.8</ele>
        <time>2025-11-27T09:13:31Z</time>
      </trkpt>
      <trkpt lat="48.73841" lon="1.73785">
        <ele>169.3</ele>
        <time>2025-11-27T09:13:39Z</time>
      </trkpt>
      <trkpt lat="48.7385" lon="1.7379">
        <ele>169.6</ele>
        <time>2025-11-27T09:13:47Z</time>
      </trkpt>
      <trkpt lat="48.73859" lon="1.73794">
        <ele>169.9</ele>
        <time>2025-11-27T09:13:55Z</time>
      </trkpt>
      <trkpt lat="48.73869" lon="1.73798">
        <ele>170.3</ele>
        <time>2025-11-27T09:14:03Z</time>
      </trkpt>
      <trkpt lat="48.73877" lon="1.73804">
        <ele>170.6</ele>
        <time>2025-11-27T09:14:11Z</time>
      </trkpt>
      <trkpt lat="48.73886" lon="1.73808">
        <ele>170.8</ele>
        <time>2025-11-27T09:14:23Z</time>
      </trkpt>
      <trkpt lat="48.73895" lon="1.73809">
        <ele>171.1</ele>
        <time>2025-11-27T09:14:33Z</time>
      </trkpt>
      <trkpt lat="48.73904" lon="1.73803">
        <ele>171.5</ele>
        <time>2025-11-27T09:17:51Z</time>
      </trkpt>
      <trkpt lat="48.73913" lon="1.73796">
        <ele>171.9</ele>
        <time>2025-11-27T09:17:58Z</time>
      </trkpt>
      <trkpt lat="48.73921" lon="1.73789">
        <ele>172</ele>
        <time>2025-11-27T09:18:04Z</time>
      </trkpt>
      <trkpt lat="48.7393" lon="1.73783">
        <ele>172</ele>
        <time>2025-11-27T09:18:11Z</time>
      </trkpt>
      <trkpt lat="48.73939" lon="1.73777">
        <ele>172</ele>
        <time>2025-11-27T09:18:17Z</time>
      </trkpt>
      <trkpt lat="48.73947" lon="1.7377">
        <ele>172</ele>
        <time>2025-11-27T09:18:23Z</time>
      </trkpt>
      <trkpt lat="48.73956" lon="1.73763">
        <ele>172</ele>
        <time>2025-11-27T09:18:30Z</time>
      </trkpt>
      <trkpt lat="48.73965" lon="1.73757">
        <ele>172</ele>
        <time>2025-11-27T09:18:37Z</time>
      </trkpt>
      <trkpt lat="48.73974" lon="1.73752">
        <ele>172</ele>
        <time>2025-11-27T09:18:44Z</time>
      </trkpt>
      <trkpt lat="48.73984" lon="1.73746">
        <ele>171.9</ele>
        <time>2025-11-27T09:18:51Z</time>
      </trkpt>
      <trkpt lat="48.73992" lon="1.73738">
        <ele>171.9</ele>
        <time>2025-11-27T09:18:58Z</time>
      </trkpt>
      <trkpt lat="48.74001" lon="1.73731">
        <ele>172</ele>
        <time>2025-11-27T09:19:05Z</time>
      </trkpt>
      <trkpt lat="48.74009" lon="1.73723">
        <ele>172</ele>
        <time>2025-11-27T09:19:12Z</time>
      </trkpt>
      <trkpt lat="48.74018" lon="1.73716">
        <ele>171.8</ele>
        <time>2025-11-27T09:19:19Z</time>
      </trkpt>
      <trkpt lat="48.74028" lon="1.7371">
        <ele>171.5</ele>
        <time>2025-11-27T09:19:25Z</time>
      </trkpt>
      <trkpt lat="48.74037" lon="1.73706">
        <ele>171.7</ele>
        <time>2025-11-27T09:19:32Z</time>
      </trkpt>
      <trkpt lat="48.74045" lon="1.73698">
        <ele>171.8</ele>
        <time>2025-11-27T09:19:39Z</time>
      </trkpt>
      <trkpt lat="48.74054" lon="1.73693">
        <ele>171.9</ele>
        <time>2025-11-27T09:19:45Z</time>
      </trkpt>
      <trkpt lat="48.74063" lon="1.73685">
        <ele>171.1</ele>
        <time>2025-11-27T09:19:52Z</time>
      </trkpt>
      <trkpt lat="48.74073" lon="1.73678">
        <ele>170.2</ele>
        <time>2025-11-27T09:19:59Z</time>
      </trkpt>
      <trkpt lat="48.74082" lon="1.73671">
        <ele>169.3</ele>
        <time>2025-11-27T09:20:06Z</time>
      </trkpt>
      <trkpt lat="48.7409" lon="1.73664">
        <ele>168.1</ele>
        <time>2025-11-27T09:20:12Z</time>
      </trkpt>
      <trkpt lat="48.74098" lon="1.73658">
        <ele>166.8</ele>
        <time>2025-11-27T09:20:17Z</time>
      </trkpt>
      <trkpt lat="48.74107" lon="1.73654">
        <ele>165.5</ele>
        <time>2025-11-27T09:20:24Z</time>
      </trkpt>
      <trkpt lat="48.74115" lon="1.73646">
        <ele>165.6</ele>
        <time>2025-11-27T09:20:30Z</time>
      </trkpt>
      <trkpt lat="48.74124" lon="1.73639">
        <ele>167.7</ele>
        <time>2025-11-27T09:20:37Z</time>
      </trkpt>
      <trkpt lat="48.74133" lon="1.73632">
        <ele>169.7</ele>
        <time>2025-11-27T09:20:42Z</time>
      </trkpt>
      <trkpt lat="48.74141" lon="1.73623">
        <ele>171.1</ele>
        <time>2025-11-27T09:20:49Z</time>
      </trkpt>
      <trkpt lat="48.7415" lon="1.73616">
        <ele>171.5</ele>
        <time>2025-11-27T09:20:55Z</time>
      </trkpt>
      <trkpt lat="48.74159" lon="1.7361">
        <ele>172.1</ele>
        <time>2025-11-27T09:21:02Z</time>
      </trkpt>
      <trkpt lat="48.74167" lon="1.73604">
        <ele>172.8</ele>
        <time>2025-11-27T09:21:10Z</time>
      </trkpt>
      <trkpt lat="48.74176" lon="1.73598">
        <ele>173</ele>
        <time>2025-11-27T09:21:17Z</time>
      </trkpt>
      <trkpt lat="48.74185" lon="1.73592">
        <ele>173.4</ele>
        <time>2025-11-27T09:21:25Z</time>
      </trkpt>
      <trkpt lat="48.74194" lon="1.73584">
        <ele>173.9</ele>
        <time>2025-11-27T09:21:33Z</time>
      </trkpt>
      <trkpt lat="48.74202" lon="1.73577">
        <ele>173.8</ele>
        <time>2025-11-27T09:21:42Z</time>
      </trkpt>
      <trkpt lat="48.7421" lon="1.73568">
        <ele>173.8</ele>
        <time>2025-11-27T09:21:50Z</time>
      </trkpt>
      <trkpt lat="48.74218" lon="1.7356">
        <ele>173.9</ele>
        <time>2025-11-27T09:21:57Z</time>
      </trkpt>
      <trkpt lat="48.74226" lon="1.73552">
        <ele>173.9</ele>
        <time>2025-11-27T09:22:04Z</time>
      </trkpt>
      <trkpt lat="48.74235" lon="1.73547">
        <ele>173.8</ele>
        <time>2025-11-27T09:22:11Z</time>
      </trkpt>
      <trkpt lat="48.74244" lon="1.73541">
        <ele>173.9</ele>
        <time>2025-11-27T09:22:18Z</time>
      </trkpt>
      <trkpt lat="48.74252" lon="1.73536">
        <ele>174</ele>
        <time>2025-11-27T09:22:24Z</time>
      </trkpt>
      <trkpt lat="48.74261" lon="1.7353">
        <ele>174</ele>
        <time>2025-11-27T09:22:31Z</time>
      </trkpt>
      <trkpt lat="48.74269" lon="1.73523">
        <ele>173.8</ele>
        <time>2025-11-27T09:22:38Z</time>
      </trkpt>
      <trkpt lat="48.74266" lon="1.7351">
        <ele>173.4</ele>
        <time>2025-11-27T09:22:54Z</time>
      </trkpt>
      <trkpt lat="48.74276" lon="1.73506">
        <ele>173.2</ele>
        <time>2025-11-27T09:22:58Z</time>
      </trkpt>
      <trkpt lat="48.74285" lon="1.73504">
        <ele>173.1</ele>
        <time>2025-11-27T09:23:03Z</time>
      </trkpt>
      <trkpt lat="48.74295" lon="1.73501">
        <ele>173</ele>
        <time>2025-11-27T09:23:09Z</time>
      </trkpt>
      <trkpt lat="48.74304" lon="1.73495">
        <ele>172.8</ele>
        <time>2025-11-27T09:23:15Z</time>
      </trkpt>
      <trkpt lat="48.74312" lon="1.7349">
        <ele>173</ele>
        <time>2025-11-27T09:23:20Z</time>
      </trkpt>
      <trkpt lat="48.74321" lon="1.73485">
        <ele>173.3</ele>
        <time>2025-11-27T09:23:26Z</time>
      </trkpt>
      <trkpt lat="48.7433" lon="1.7348">
        <ele>173.8</ele>
        <time>2025-11-27T09:23:33Z</time>
      </trkpt>
      <trkpt lat="48.74339" lon="1.73471">
        <ele>174</ele>
        <time>2025-11-27T09:23:40Z</time>
      </trkpt>
      <trkpt lat="48.74345" lon="1.73459">
        <ele>173.7</ele>
        <time>2025-11-27T09:23:47Z</time>
      </trkpt>
      <trkpt lat="48.74352" lon="1.7345">
        <ele>173.7</ele>
        <time>2025-11-27T09:23:54Z</time>
      </trkpt>
      <trkpt lat="48.74358" lon="1.73439">
        <ele>173.7</ele>
        <time>2025-11-27T09:24:02Z</time>
      </trkpt>
      <trkpt lat="48.74365" lon="1.73429">
        <ele>173.5</ele>
        <time>2025-11-27T09:24:09Z</time>
      </trkpt>
      <trkpt lat="48.74372" lon="1.73419">
        <ele>173.1</ele>
        <time>2025-11-27T09:24:17Z</time>
      </trkpt>
      <trkpt lat="48.74381" lon="1.73422">
        <ele>173.2</ele>
        <time>2025-11-27T09:24:50Z</time>
      </trkpt>
      <trkpt lat="48.7439" lon="1.73427">
        <ele>173.4</ele>
        <time>2025-11-27T09:24:58Z</time>
      </trkpt>
      <trkpt lat="48.74398" lon="1.73434">
        <ele>173.8</ele>
        <time>2025-11-27T09:25:06Z</time>
      </trkpt>
      <trkpt lat="48.74407" lon="1.73438">
        <ele>173.9</ele>
        <time>2025-11-27T09:25:14Z</time>
      </trkpt>
      <trkpt lat="48.74417" lon="1.7344">
        <ele>174</ele>
        <time>2025-11-27T09:25:21Z</time>
      </trkpt>
      <trkpt lat="48.74426" lon="1.73444">
        <ele>174</ele>
        <time>2025-11-27T09:25:30Z</time>
      </trkpt>
      <trkpt lat="48.74435" lon="1.73446">
        <ele>174</ele>
        <time>2025-11-27T09:25:38Z</time>
      </trkpt>
      <trkpt lat="48.74426" lon="1.73442">
        <ele>174</ele>
        <time>2025-11-27T09:26:01Z</time>
      </trkpt>
      <trkpt lat="48.74416" lon="1.73439">
        <ele>174</ele>
        <time>2025-11-27T09:26:08Z</time>
      </trkpt>
      <trkpt lat="48.74407" lon="1.73437">
        <ele>173.9</ele>
        <time>2025-11-27T09:26:15Z</time>
      </trkpt>
      <trkpt lat="48.74397" lon="1.73434">
        <ele>173.7</ele>
        <time>2025-11-27T09:26:23Z</time>
      </trkpt>
      <trkpt lat="48.74389" lon="1.73427">
        <ele>173.4</ele>
        <time>2025-11-27T09:26:33Z</time>
      </trkpt>
      <trkpt lat="48.7438" lon="1.73419">
        <ele>173.1</ele>
        <time>2025-11-27T09:26:42Z</time>
      </trkpt>
      <trkpt lat="48.74384" lon="1.73407">
        <ele>172.4</ele>
        <time>2025-11-27T09:26:58Z</time>
      </trkpt>
      <trkpt lat="48.74392" lon="1.73398">
        <ele>171.8</ele>
        <time>2025-11-27T09:27:08Z</time>
      </trkpt>
      <trkpt lat="48.74399" lon="1.73388">
        <ele>171.6</ele>
        <time>2025-11-27T09:27:16Z</time>
      </trkpt>
      <trkpt lat="48.74405" lon="1.73377">
        <ele>171.5</ele>
        <time>2025-11-27T09:27:24Z</time>
      </trkpt>
      <trkpt lat="48.74411" lon="1.73367">
        <ele>171.6</ele>
        <time>2025-11-27T09:27:32Z</time>
      </trkpt>
      <trkpt lat="48.74418" lon="1.73358">
        <ele>171.8</ele>
        <time>2025-11-27T09:27:40Z</time>
      </trkpt>
      <trkpt lat="48.74425" lon="1.73347">
        <ele>171.4</ele>
        <time>2025-11-27T09:27:48Z</time>
      </trkpt>
      <trkpt lat="48.7443" lon="1.73334">
        <ele>171</ele>
        <time>2025-11-27T09:27:55Z</time>
      </trkpt>
      <trkpt lat="48.74437" lon="1.73324">
        <ele>170.9</ele>
        <time>2025-11-27T09:28:02Z</time>
      </trkpt>
      <trkpt lat="48.74442" lon="1.73313">
        <ele>170.9</ele>
        <time>2025-11-27T09:28:10Z</time>
      </trkpt>
      <trkpt lat="48.74448" lon="1.73302">
        <ele>171.1</ele>
        <time>2025-11-27T09:28:18Z</time>
      </trkpt>
      <trkpt lat="48.74454" lon="1.7329">
        <ele>171.1</ele>
        <time>2025-11-27T09:28:25Z</time>
      </trkpt>
      <trkpt lat="48.7446" lon="1.73278">
        <ele>171.2</ele>
        <time>2025-11-27T09:28:33Z</time>
      </trkpt>
      <trkpt lat="48.74468" lon="1.73269">
        <ele>171.5</ele>
        <time>2025-11-27T09:28:41Z</time>
      </trkpt>
      <trkpt lat="48.74476" lon="1.73259">
        <ele>172.2</ele>
        <time>2025-11-27T09:28:48Z</time>
      </trkpt>
      <trkpt lat="48.74484" lon="1.73253">
        <ele>172.5</ele>
        <time>2025-11-27T09:28:58Z</time>
      </trkpt>
      <trkpt lat="48.74491" lon="1.73244">
        <ele>172.6</ele>
        <time>2025-11-27T09:29:07Z</time>
      </trkpt>
      <trkpt lat="48.74496" lon="1.73233">
        <ele>172.8</ele>
        <time>2025-11-27T09:29:19Z</time>
      </trkpt>
      <trkpt lat="48.74503" lon="1.73223">
        <ele>173.1</ele>
        <time>2025-11-27T09:29:28Z</time>
      </trkpt>
      <trkpt lat="48.74509" lon="1.73212">
        <ele>173.3</ele>
        <time>2025-11-27T09:29:37Z</time>
      </trkpt>
      <trkpt lat="48.74515" lon="1.73201">
        <ele>173.5</ele>
        <time>2025-11-27T09:29:45Z</time>
      </trkpt>
      <trkpt lat="48.74524" lon="1.73198">
        <ele>173.9</ele>
        <time>2025-11-27T09:29:54Z</time>
      </trkpt>
      <trkpt lat="48.74533" lon="1.73198">
        <ele>174.2</ele>
        <time>2025-11-27T09:30:05Z</time>
      </trkpt>
      <trkpt lat="48.74542" lon="1.73203">
        <ele>174.5</ele>
        <time>2025-11-27T09:30:13Z</time>
      </trkpt>
      <trkpt lat="48.74551" lon="1.73206">
        <ele>174.8</ele>
        <time>2025-11-27T09:30:21Z</time>
      </trkpt>
      <trkpt lat="48.7456" lon="1.73213">
        <ele>175.2</ele>
        <time>2025-11-27T09:30:30Z</time>
      </trkpt>
      <trkpt lat="48.7457" lon="1.73216">
        <ele>175.5</ele>
        <time>2025-11-27T09:30:38Z</time>
      </trkpt>
      <trkpt lat="48.74579" lon="1.73219">
        <ele>175.9</ele>
        <time>2025-11-27T09:30:46Z</time>
      </trkpt>
      <trkpt lat="48.74588" lon="1.73223">
        <ele>176</ele>
        <time>2025-11-27T09:30:53Z</time>
      </trkpt>
      <trkpt lat="48.74598" lon="1.73226">
        <ele>176</ele>
        <time>2025-11-27T09:31:00Z</time>
      </trkpt>
      <trkpt lat="48.74607" lon="1.73228">
        <ele>176</ele>
        <time>2025-11-27T09:31:06Z</time>
      </trkpt>
      <trkpt lat="48.74616" lon="1.7323">
        <ele>176</ele>
        <time>2025-11-27T09:31:13Z</time>
      </trkpt>
      <trkpt lat="48.74625" lon="1.73234">
        <ele>176</ele>
        <time>2025-11-27T09:31:21Z</time>
      </trkpt>
      <trkpt lat="48.74635" lon="1.73237">
        <ele>176</ele>
        <time>2025-11-27T09:31:29Z</time>
      </trkpt>
      <trkpt lat="48.74644" lon="1.73239">
        <ele>176.1</ele>
        <time>2025-11-27T09:31:37Z</time>
      </trkpt>
      <trkpt lat="48.74654" lon="1.73242">
        <ele>176.2</ele>
        <time>2025-11-27T09:31:45Z</time>
      </trkpt>
      <trkpt lat="48.74663" lon="1.73245">
        <ele>176.1</ele>
        <time>2025-11-27T09:31:52Z</time>
      </trkpt>
      <trkpt lat="48.74673" lon="1.7325">
        <ele>176</ele>
        <time>2025-11-27T09:32:00Z</time>
      </trkpt>
      <trkpt lat="48.74683" lon="1.73252">
        <ele>176</ele>
        <time>2025-11-27T09:32:07Z</time>
      </trkpt>
      <trkpt lat="48.74692" lon="1.73256">
        <ele>176</ele>
        <time>2025-11-27T09:32:14Z</time>
      </trkpt>
      <trkpt lat="48.74701" lon="1.73259">
        <ele>176</ele>
        <time>2025-11-27T09:32:21Z</time>
      </trkpt>
      <trkpt lat="48.7471" lon="1.73263">
        <ele>176</ele>
        <time>2025-11-27T09:32:28Z</time>
      </trkpt>
      <trkpt lat="48.74719" lon="1.73267">
        <ele>176</ele>
        <time>2025-11-27T09:32:35Z</time>
      </trkpt>
      <trkpt lat="48.74729" lon="1.7327">
        <ele>176</ele>
        <time>2025-11-27T09:32:43Z</time>
      </trkpt>
      <trkpt lat="48.74738" lon="1.73274">
        <ele>176</ele>
        <time>2025-11-27T09:32:50Z</time>
      </trkpt>
      <trkpt lat="48.74748" lon="1.73277">
        <ele>176</ele>
        <time>2025-11-27T09:32:58Z</time>
      </trkpt>
      <trkpt lat="48.74758" lon="1.73281">
        <ele>176</ele>
        <time>2025-11-27T09:33:05Z</time>
      </trkpt>
      <trkpt lat="48.74767" lon="1.73284">
        <ele>176</ele>
        <time>2025-11-27T09:33:12Z</time>
      </trkpt>
      <trkpt lat="48.74776" lon="1.73288">
        <ele>176</ele>
        <time>2025-11-27T09:33:19Z</time>
      </trkpt>
      <trkpt lat="48.74786" lon="1.73289">
        <ele>175.7</ele>
        <time>2025-11-27T09:33:26Z</time>
      </trkpt>
      <trkpt lat="48.74795" lon="1.73292">
        <ele>175.4</ele>
        <time>2025-11-27T09:33:33Z</time>
      </trkpt>
      <trkpt lat="48.74804" lon="1.73296">
        <ele>175</ele>
        <time>2025-11-27T09:33:40Z</time>
      </trkpt>
      <trkpt lat="48.74813" lon="1.733">
        <ele>174.8</ele>
        <time>2025-11-27T09:33:47Z</time>
      </trkpt>
      <trkpt lat="48.74823" lon="1.73303">
        <ele>174.4</ele>
        <time>2025-11-27T09:33:54Z</time>
      </trkpt>
      <trkpt lat="48.74832" lon="1.73307">
        <ele>174.1</ele>
        <time>2025-11-27T09:34:01Z</time>
      </trkpt>
      <trkpt lat="48.74841" lon="1.7331">
        <ele>174.1</ele>
        <time>2025-11-27T09:34:07Z</time>
      </trkpt>
      <trkpt lat="48.74851" lon="1.73313">
        <ele>173.9</ele>
        <time>2025-11-27T09:34:14Z</time>
      </trkpt>
      <trkpt lat="48.7486" lon="1.73315">
        <ele>173.7</ele>
        <time>2025-11-27T09:34:21Z</time>
      </trkpt>
      <trkpt lat="48.74869" lon="1.73319">
        <ele>173.2</ele>
        <time>2025-11-27T09:34:28Z</time>
      </trkpt>
      <trkpt lat="48.74878" lon="1.73323">
        <ele>172.8</ele>
        <time>2025-11-27T09:34:35Z</time>
      </trkpt>
      <trkpt lat="48.74888" lon="1.73325">
        <ele>172.3</ele>
        <time>2025-11-27T09:34:41Z</time>
      </trkpt>
      <trkpt lat="48.74896" lon="1.73332">
        <ele>172</ele>
        <time>2025-11-27T09:34:47Z</time>
      </trkpt>
      <trkpt lat="48.74905" lon="1.73336">
        <ele>171.9</ele>
        <time>2025-11-27T09:34:53Z</time>
      </trkpt>
      <trkpt lat="48.74914" lon="1.73337">
        <ele>171.9</ele>
        <time>2025-11-27T09:35:00Z</time>
      </trkpt>
      <trkpt lat="48.74924" lon="1.7334">
        <ele>171.3</ele>
        <time>2025-11-27T09:35:07Z</time>
      </trkpt>
      <trkpt lat="48.74934" lon="1.73342">
        <ele>170.7</ele>
        <time>2025-11-27T09:35:13Z</time>
      </trkpt>
      <trkpt lat="48.74943" lon="1.73345">
        <ele>170.1</ele>
        <time>2025-11-27T09:35:20Z</time>
      </trkpt>
      <trkpt lat="48.74952" lon="1.73349">
        <ele>169.8</ele>
        <time>2025-11-27T09:35:27Z</time>
      </trkpt>
      <trkpt lat="48.74961" lon="1.73351">
        <ele>169.6</ele>
        <time>2025-11-27T09:35:34Z</time>
      </trkpt>
      <trkpt lat="48.7497" lon="1.73353">
        <ele>169.3</ele>
        <time>2025-11-27T09:35:41Z</time>
      </trkpt>
      <trkpt lat="48.74979" lon="1.7336">
        <ele>168.8</ele>
        <time>2025-11-27T09:35:49Z</time>
      </trkpt>
      <trkpt lat="48.74989" lon="1.73363">
        <ele>168.3</ele>
        <time>2025-11-27T09:35:56Z</time>
      </trkpt>
      <trkpt lat="48.74999" lon="1.73367">
        <ele>167.8</ele>
        <time>2025-11-27T09:36:03Z</time>
      </trkpt>
      <trkpt lat="48.75008" lon="1.73373">
        <ele>167.1</ele>
        <time>2025-11-27T09:36:10Z</time>
      </trkpt>
      <trkpt lat="48.75018" lon="1.73376">
        <ele>166.5</ele>
        <time>2025-11-27T09:36:17Z</time>
      </trkpt>
      <trkpt lat="48.75028" lon="1.73379">
        <ele>166</ele>
        <time>2025-11-27T09:36:25Z</time>
      </trkpt>
      <trkpt lat="48.75037" lon="1.73383">
        <ele>165.4</ele>
        <time>2025-11-27T09:36:31Z</time>
      </trkpt>
      <trkpt lat="48.75046" lon="1.73387">
        <ele>164.7</ele>
        <time>2025-11-27T09:36:37Z</time>
      </trkpt>
      <trkpt lat="48.75052" lon="1.73397">
        <ele>164</ele>
        <time>2025-11-27T09:36:50Z</time>
      </trkpt>
      <trkpt lat="48.7506" lon="1.73406">
        <ele>163.1</ele>
        <time>2025-11-27T09:36:59Z</time>
      </trkpt>
      <trkpt lat="48.75069" lon="1.73413">
        <ele>162.1</ele>
        <time>2025-11-27T09:37:07Z</time>
      </trkpt>
      <trkpt lat="48.75077" lon="1.73422">
        <ele>161.1</ele>
        <time>2025-11-27T09:37:16Z</time>
      </trkpt>
      <trkpt lat="48.75084" lon="1.73432">
        <ele>159.9</ele>
        <time>2025-11-27T09:37:25Z</time>
      </trkpt>
      <trkpt lat="48.75093" lon="1.7344">
        <ele>158.9</ele>
        <time>2025-11-27T09:37:33Z</time>
      </trkpt>
      <trkpt lat="48.75101" lon="1.73448">
        <ele>157.7</ele>
        <time>2025-11-27T09:37:40Z</time>
      </trkpt>
      <trkpt lat="48.7511" lon="1.73455">
        <ele>156.1</ele>
        <time>2025-11-27T09:37:48Z</time>
      </trkpt>
      <trkpt lat="48.75117" lon="1.73466">
        <ele>154.4</ele>
        <time>2025-11-27T09:37:56Z</time>
      </trkpt>
      <trkpt lat="48.75124" lon="1.73475">
        <ele>153.5</ele>
        <time>2025-11-27T09:38:03Z</time>
      </trkpt>
      <trkpt lat="48.75131" lon="1.73485">
        <ele>152</ele>
        <time>2025-11-27T09:38:10Z</time>
      </trkpt>
      <trkpt lat="48.75125" lon="1.73496">
        <ele>149.3</ele>
        <time>2025-11-27T09:38:16Z</time>
      </trkpt>
      <trkpt lat="48.75134" lon="1.73496">
        <ele>150.3</ele>
        <time>2025-11-27T09:38:21Z</time>
      </trkpt>
      <trkpt lat="48.75144" lon="1.73502">
        <ele>150.4</ele>
        <time>2025-11-27T09:38:28Z</time>
      </trkpt>
      <trkpt lat="48.75153" lon="1.73508">
        <ele>150.8</ele>
        <time>2025-11-27T09:38:34Z</time>
      </trkpt>
      <trkpt lat="48.7516" lon="1.73519">
        <ele>150.7</ele>
        <time>2025-11-27T09:38:41Z</time>
      </trkpt>
      <trkpt lat="48.75167" lon="1.73529">
        <ele>150.8</ele>
        <time>2025-11-27T09:38:48Z</time>
      </trkpt>
      <trkpt lat="48.75174" lon="1.7354">
        <ele>149.3</ele>
        <time>2025-11-27T09:38:55Z</time>
      </trkpt>
      <trkpt lat="48.7518" lon="1.73553">
        <ele>147.8</ele>
        <time>2025-11-27T09:39:02Z</time>
      </trkpt>
      <trkpt lat="48.75183" lon="1.73567">
        <ele>146.2</ele>
        <time>2025-11-27T09:39:09Z</time>
      </trkpt>
      <trkpt lat="48.75186" lon="1.73581">
        <ele>144.7</ele>
        <time>2025-11-27T09:39:16Z</time>
      </trkpt>
      <trkpt lat="48.75189" lon="1.73596">
        <ele>143.3</ele>
        <time>2025-11-27T09:39:23Z</time>
      </trkpt>
      <trkpt lat="48.75193" lon="1.73608">
        <ele>142.2</ele>
        <time>2025-11-27T09:39:30Z</time>
      </trkpt>
      <trkpt lat="48.75195" lon="1.73622">
        <ele>140.9</ele>
        <time>2025-11-27T09:39:37Z</time>
      </trkpt>
      <trkpt lat="48.75198" lon="1.73636">
        <ele>139.4</ele>
        <time>2025-11-27T09:39:45Z</time>
      </trkpt>
      <trkpt lat="48.75201" lon="1.7365">
        <ele>138.4</ele>
        <time>2025-11-27T09:39:53Z</time>
      </trkpt>
      <trkpt lat="48.75209" lon="1.73654">
        <ele>138.1</ele>
        <time>2025-11-27T09:39:59Z</time>
      </trkpt>
      <trkpt lat="48.75207" lon="1.73668">
        <ele>136.9</ele>
        <time>2025-11-27T09:40:25Z</time>
      </trkpt>
      <trkpt lat="48.75208" lon="1.73682">
        <ele>136.2</ele>
        <time>2025-11-27T09:40:34Z</time>
      </trkpt>
      <trkpt lat="48.75214" lon="1.73693">
        <ele>135.4</ele>
        <time>2025-11-27T09:40:50Z</time>
      </trkpt>
      <trkpt lat="48.7522" lon="1.73706">
        <ele>134.7</ele>
        <time>2025-11-27T09:41:00Z</time>
      </trkpt>
      <trkpt lat="48.75224" lon="1.73718">
        <ele>134.1</ele>
        <time>2025-11-27T09:41:08Z</time>
      </trkpt>
      <trkpt lat="48.7523" lon="1.7373">
        <ele>133.5</ele>
        <time>2025-11-27T09:41:17Z</time>
      </trkpt>
      <trkpt lat="48.75232" lon="1.73744">
        <ele>133.1</ele>
        <time>2025-11-27T09:41:29Z</time>
      </trkpt>
      <trkpt lat="48.75237" lon="1.73757">
        <ele>132.9</ele>
        <time>2025-11-27T09:41:35Z</time>
      </trkpt>
      <trkpt lat="48.75243" lon="1.73767">
        <ele>132.8</ele>
        <time>2025-11-27T09:41:41Z</time>
      </trkpt>
      <trkpt lat="48.75247" lon="1.73779">
        <ele>132.9</ele>
        <time>2025-11-27T09:41:48Z</time>
      </trkpt>
      <trkpt lat="48.75253" lon="1.7379">
        <ele>132.9</ele>
        <time>2025-11-27T09:41:54Z</time>
      </trkpt>
      <trkpt lat="48.7526" lon="1.738">
        <ele>132.4</ele>
        <time>2025-11-27T09:42:00Z</time>
      </trkpt>
      <trkpt lat="48.75266" lon="1.7381">
        <ele>131.9</ele>
        <time>2025-11-27T09:42:07Z</time>
      </trkpt>
      <trkpt lat="48.75271" lon="1.73823">
        <ele>132.1</ele>
        <time>2025-11-27T09:42:17Z</time>
      </trkpt>
      <trkpt lat="48.75277" lon="1.73834">
        <ele>132.9</ele>
        <time>2025-11-27T09:42:25Z</time>
      </trkpt>
      <trkpt lat="48.75281" lon="1.73846">
        <ele>133.2</ele>
        <time>2025-11-27T09:42:34Z</time>
      </trkpt>
      <trkpt lat="48.75287" lon="1.73857">
        <ele>132.9</ele>
        <time>2025-11-27T09:42:45Z</time>
      </trkpt>
      <trkpt lat="48.75291" lon="1.7387">
        <ele>134</ele>
        <time>2025-11-27T09:43:00Z</time>
      </trkpt>
      <trkpt lat="48.75296" lon="1.73884">
        <ele>135.4</ele>
        <time>2025-11-27T09:43:09Z</time>
      </trkpt>
      <trkpt lat="48.75287" lon="1.73877">
        <ele>135.8</ele>
        <time>2025-11-27T09:43:33Z</time>
      </trkpt>
      <trkpt lat="48.75278" lon="1.73875">
        <ele>137</ele>
        <time>2025-11-27T09:43:42Z</time>
      </trkpt>
      <trkpt lat="48.75288" lon="1.73873">
        <ele>135.1</ele>
        <time>2025-11-27T09:45:07Z</time>
      </trkpt>
      <trkpt lat="48.75297" lon="1.73876">
        <ele>134</ele>
        <time>2025-11-27T09:45:18Z</time>
      </trkpt>
      <trkpt lat="48.75305" lon="1.73885">
        <ele>133.7</ele>
        <time>2025-11-27T09:46:05Z</time>
      </trkpt>
      <trkpt lat="48.75313" lon="1.73892">
        <ele>134</ele>
        <time>2025-11-27T09:46:16Z</time>
      </trkpt>
      <trkpt lat="48.75321" lon="1.739">
        <ele>134.5</ele>
        <time>2025-11-27T09:46:25Z</time>
      </trkpt>
      <trkpt lat="48.75329" lon="1.7391">
        <ele>134.8</ele>
        <time>2025-11-27T09:46:33Z</time>
      </trkpt>
      <trkpt lat="48.75336" lon="1.73919">
        <ele>134.7</ele>
        <time>2025-11-27T09:46:40Z</time>
      </trkpt>
      <trkpt lat="48.75343" lon="1.73929">
        <ele>134.4</ele>
        <time>2025-11-27T09:46:47Z</time>
      </trkpt>
      <trkpt lat="48.75347" lon="1.73942">
        <ele>134.9</ele>
        <time>2025-11-27T09:46:54Z</time>
      </trkpt>
      <trkpt lat="48.75349" lon="1.73956">
        <ele>135.3</ele>
        <time>2025-11-27T09:47:01Z</time>
      </trkpt>
      <trkpt lat="48.75352" lon="1.7397">
        <ele>135.9</ele>
        <time>2025-11-27T09:47:08Z</time>
      </trkpt>
      <trkpt lat="48.75355" lon="1.73983">
        <ele>136.6</ele>
        <time>2025-11-27T09:47:14Z</time>
      </trkpt>
      <trkpt lat="48.75361" lon="1.73995">
        <ele>136.8</ele>
        <time>2025-11-27T09:47:21Z</time>
      </trkpt>
      <trkpt lat="48.75367" lon="1.74009">
        <ele>137.8</ele>
        <time>2025-11-27T09:47:29Z</time>
      </trkpt>
      <trkpt lat="48.75374" lon="1.74018">
        <ele>138.4</ele>
        <time>2025-11-27T09:47:36Z</time>
      </trkpt>
      <trkpt lat="48.75382" lon="1.74027">
        <ele>138.5</ele>
        <time>2025-11-27T09:47:44Z</time>
      </trkpt>
      <trkpt lat="48.7539" lon="1.74033">
        <ele>138.5</ele>
        <time>2025-11-27T09:47:51Z</time>
      </trkpt>
      <trkpt lat="48.75399" lon="1.74041">
        <ele>139.3</ele>
        <time>2025-11-27T09:47:58Z</time>
      </trkpt>
      <trkpt lat="48.75407" lon="1.74049">
        <ele>139.8</ele>
        <time>2025-11-27T09:48:04Z</time>
      </trkpt>
      <trkpt lat="48.75415" lon="1.74058">
        <ele>140.4</ele>
        <time>2025-11-27T09:48:11Z</time>
      </trkpt>
      <trkpt lat="48.75423" lon="1.74068">
        <ele>141.4</ele>
        <time>2025-11-27T09:48:18Z</time>
      </trkpt>
      <trkpt lat="48.75429" lon="1.74078">
        <ele>142.2</ele>
        <time>2025-11-27T09:48:25Z</time>
      </trkpt>
      <trkpt lat="48.75437" lon="1.74084">
        <ele>142.4</ele>
        <time>2025-11-27T09:48:31Z</time>
      </trkpt>
      <trkpt lat="48.75444" lon="1.74094">
        <ele>142.8</ele>
        <time>2025-11-27T09:48:39Z</time>
      </trkpt>
      <trkpt lat="48.75452" lon="1.74102">
        <ele>143.8</ele>
        <time>2025-11-27T09:48:46Z</time>
      </trkpt>
      <trkpt lat="48.7546" lon="1.74112">
        <ele>144.6</ele>
        <time>2025-11-27T09:48:53Z</time>
      </trkpt>
      <trkpt lat="48.75469" lon="1.7412">
        <ele>145.3</ele>
        <time>2025-11-27T09:49:01Z</time>
      </trkpt>
      <trkpt lat="48.75476" lon="1.74129">
        <ele>146.2</ele>
        <time>2025-11-27T09:49:08Z</time>
      </trkpt>
      <trkpt lat="48.75482" lon="1.7414">
        <ele>147.5</ele>
        <time>2025-11-27T09:49:16Z</time>
      </trkpt>
      <trkpt lat="48.75485" lon="1.74153">
        <ele>148.7</ele>
        <time>2025-11-27T09:49:24Z</time>
      </trkpt>
      <trkpt lat="48.75483" lon="1.74168">
        <ele>149.2</ele>
        <time>2025-11-27T09:49:31Z</time>
      </trkpt>
      <trkpt lat="48.7548" lon="1.74181">
        <ele>149.2</ele>
        <time>2025-11-27T09:49:38Z</time>
      </trkpt>
      <trkpt lat="48.75476" lon="1.74193">
        <ele>149.2</ele>
        <time>2025-11-27T09:49:45Z</time>
      </trkpt>
      <trkpt lat="48.75472" lon="1.74206">
        <ele>149.9</ele>
        <time>2025-11-27T09:49:52Z</time>
      </trkpt>
      <trkpt lat="48.75469" lon="1.7422">
        <ele>151.2</ele>
        <time>2025-11-27T09:49:59Z</time>
      </trkpt>
      <trkpt lat="48.75466" lon="1.74233">
        <ele>152.5</ele>
        <time>2025-11-27T09:50:06Z</time>
      </trkpt>
      <trkpt lat="48.75466" lon="1.74248">
        <ele>153.5</ele>
        <time>2025-11-27T09:50:13Z</time>
      </trkpt>
      <trkpt lat="48.75466" lon="1.74262">
        <ele>155.5</ele>
        <time>2025-11-27T09:50:21Z</time>
      </trkpt>
      <trkpt lat="48.75466" lon="1.74278">
        <ele>157.7</ele>
        <time>2025-11-27T09:50:30Z</time>
      </trkpt>
      <trkpt lat="48.75468" lon="1.74293">
        <ele>158.7</ele>
        <time>2025-11-27T09:50:39Z</time>
      </trkpt>
      <trkpt lat="48.7547" lon="1.74307">
        <ele>159.4</ele>
        <time>2025-11-27T09:50:47Z</time>
      </trkpt>
      <trkpt lat="48.75472" lon="1.74321">
        <ele>160.2</ele>
        <time>2025-11-27T09:50:55Z</time>
      </trkpt>
      <trkpt lat="48.75475" lon="1.74335">
        <ele>161.3</ele>
        <time>2025-11-27T09:51:02Z</time>
      </trkpt>
      <trkpt lat="48.75477" lon="1.74349">
        <ele>162.4</ele>
        <time>2025-11-27T09:51:10Z</time>
      </trkpt>
      <trkpt lat="48.7548" lon="1.74363">
        <ele>163.4</ele>
        <time>2025-11-27T09:51:17Z</time>
      </trkpt>
      <trkpt lat="48.75482" lon="1.74377">
        <ele>164.5</ele>
        <time>2025-11-27T09:51:25Z</time>
      </trkpt>
      <trkpt lat="48.75484" lon="1.74391">
        <ele>165.7</ele>
        <time>2025-11-27T09:51:32Z</time>
      </trkpt>
      <trkpt lat="48.75481" lon="1.74405">
        <ele>167.6</ele>
        <time>2025-11-27T09:51:41Z</time>
      </trkpt>
      <trkpt lat="48.75477" lon="1.74419">
        <ele>169.4</ele>
        <time>2025-11-27T09:51:50Z</time>
      </trkpt>
      <trkpt lat="48.75474" lon="1.74432">
        <ele>170.8</ele>
        <time>2025-11-27T09:51:58Z</time>
      </trkpt>
      <trkpt lat="48.75475" lon="1.74446">
        <ele>172.3</ele>
        <time>2025-11-27T09:52:05Z</time>
      </trkpt>
      <trkpt lat="48.75476" lon="1.74461">
        <ele>173.9</ele>
        <time>2025-11-27T09:52:13Z</time>
      </trkpt>
      <trkpt lat="48.75478" lon="1.74474">
        <ele>175.3</ele>
        <time>2025-11-27T09:52:21Z</time>
      </trkpt>
      <trkpt lat="48.75478" lon="1.74489">
        <ele>176</ele>
        <time>2025-11-27T09:52:30Z</time>
      </trkpt>
      <trkpt lat="48.7548" lon="1.74504">
        <ele>176.8</ele>
        <time>2025-11-27T09:52:39Z</time>
      </trkpt>
      <trkpt lat="48.75477" lon="1.74518">
        <ele>177.5</ele>
        <time>2025-11-27T09:52:49Z</time>
      </trkpt>
      <trkpt lat="48.75473" lon="1.74531">
        <ele>178.2</ele>
        <time>2025-11-27T09:54:36Z</time>
      </trkpt>
      <trkpt lat="48.75465" lon="1.74538">
        <ele>178.4</ele>
        <time>2025-11-27T09:54:43Z</time>
      </trkpt>
      <trkpt lat="48.75458" lon="1.74549">
        <ele>178.8</ele>
        <time>2025-11-27T09:54:50Z</time>
      </trkpt>
      <trkpt lat="48.75451" lon="1.7456">
        <ele>179.2</ele>
        <time>2025-11-27T09:54:58Z</time>
      </trkpt>
      <trkpt lat="48.75445" lon="1.74571">
        <ele>179.6</ele>
        <time>2025-11-27T09:55:05Z</time>
      </trkpt>
      <trkpt lat="48.75438" lon="1.74583">
        <ele>180</ele>
        <time>2025-11-27T09:55:12Z</time>
      </trkpt>
      <trkpt lat="48.75431" lon="1.74592">
        <ele>180</ele>
        <time>2025-11-27T09:55:18Z</time>
      </trkpt>
      <trkpt lat="48.75425" lon="1.74602">
        <ele>180</ele>
        <time>2025-11-27T09:55:25Z</time>
      </trkpt>
      <trkpt lat="48.75419" lon="1.74613">
        <ele>180</ele>
        <time>2025-11-27T09:55:32Z</time>
      </trkpt>
      <trkpt lat="48.75412" lon="1.74623">
        <ele>180</ele>
        <time>2025-11-27T09:55:39Z</time>
      </trkpt>
      <trkpt lat="48.75405" lon="1.74634">
        <ele>180</ele>
        <time>2025-11-27T09:55:46Z</time>
      </trkpt>
      <trkpt lat="48.75397" lon="1.7464">
        <ele>180</ele>
        <time>2025-11-27T09:55:53Z</time>
      </trkpt>
      <trkpt lat="48.75387" lon="1.74642">
        <ele>180</ele>
        <time>2025-11-27T09:56:00Z</time>
      </trkpt>
      <trkpt lat="48.75379" lon="1.74651">
        <ele>180</ele>
        <time>2025-11-27T09:56:08Z</time>
      </trkpt>
      <trkpt lat="48.7537" lon="1.74656">
        <ele>180</ele>
        <time>2025-11-27T09:56:15Z</time>
      </trkpt>
      <trkpt lat="48.75361" lon="1.74662">
        <ele>180</ele>
        <time>2025-11-27T09:56:22Z</time>
      </trkpt>
      <trkpt lat="48.75352" lon="1.74668">
        <ele>180.4</ele>
        <time>2025-11-27T09:56:28Z</time>
      </trkpt>
      <trkpt lat="48.75343" lon="1.74674">
        <ele>180.7</ele>
        <time>2025-11-27T09:56:35Z</time>
      </trkpt>
      <trkpt lat="48.75334" lon="1.74679">
        <ele>181</ele>
        <time>2025-11-27T09:56:41Z</time>
      </trkpt>
      <trkpt lat="48.75325" lon="1.74685">
        <ele>181</ele>
        <time>2025-11-27T09:56:47Z</time>
      </trkpt>
      <trkpt lat="48.7532" lon="1.74696">
        <ele>181</ele>
        <time>2025-11-27T09:56:53Z</time>
      </trkpt>
      <trkpt lat="48.75316" lon="1.74711">
        <ele>181</ele>
        <time>2025-11-27T09:57:00Z</time>
      </trkpt>
      <trkpt lat="48.75314" lon="1.74725">
        <ele>181</ele>
        <time>2025-11-27T09:57:06Z</time>
      </trkpt>
      <trkpt lat="48.75311" lon="1.74738">
        <ele>181</ele>
        <time>2025-11-27T09:57:12Z</time>
      </trkpt>
      <trkpt lat="48.75307" lon="1.74752">
        <ele>180.9</ele>
        <time>2025-11-27T09:57:19Z</time>
      </trkpt>
      <trkpt lat="48.75302" lon="1.74766">
        <ele>180.4</ele>
        <time>2025-11-27T09:57:26Z</time>
      </trkpt>
      <trkpt lat="48.75297" lon="1.74778">
        <ele>180</ele>
        <time>2025-11-27T09:57:33Z</time>
      </trkpt>
      <trkpt lat="48.75291" lon="1.74789">
        <ele>180</ele>
        <time>2025-11-27T09:57:39Z</time>
      </trkpt>
      <trkpt lat="48.75285" lon="1.74801">
        <ele>180</ele>
        <time>2025-11-27T09:57:45Z</time>
      </trkpt>
      <trkpt lat="48.75279" lon="1.74812">
        <ele>179.8</ele>
        <time>2025-11-27T09:57:51Z</time>
      </trkpt>
      <trkpt lat="48.75273" lon="1.74823">
        <ele>179.1</ele>
        <time>2025-11-27T09:57:57Z</time>
      </trkpt>
      <trkpt lat="48.75268" lon="1.74836">
        <ele>178.3</ele>
        <time>2025-11-27T09:58:04Z</time>
      </trkpt>
      <trkpt lat="48.75263" lon="1.74848">
        <ele>178</ele>
        <time>2025-11-27T09:58:11Z</time>
      </trkpt>
      <trkpt lat="48.75258" lon="1.7486">
        <ele>177.6</ele>
        <time>2025-11-27T09:58:18Z</time>
      </trkpt>
      <trkpt lat="48.75253" lon="1.74871">
        <ele>177.5</ele>
        <time>2025-11-27T09:58:24Z</time>
      </trkpt>
      <trkpt lat="48.75245" lon="1.74881">
        <ele>177.7</ele>
        <time>2025-11-27T09:58:31Z</time>
      </trkpt>
      <trkpt lat="48.75237" lon="1.74888">
        <ele>178</ele>
        <time>2025-11-27T09:58:38Z</time>
      </trkpt>
      <trkpt lat="48.75228" lon="1.74896">
        <ele>178.5</ele>
        <time>2025-11-27T09:58:45Z</time>
      </trkpt>
      <trkpt lat="48.75218" lon="1.74902">
        <ele>178.8</ele>
        <time>2025-11-27T09:58:52Z</time>
      </trkpt>
      <trkpt lat="48.7521" lon="1.74907">
        <ele>178.9</ele>
        <time>2025-11-27T09:58:58Z</time>
      </trkpt>
      <trkpt lat="48.75201" lon="1.74911">
        <ele>178.8</ele>
        <time>2025-11-27T09:59:05Z</time>
      </trkpt>
      <trkpt lat="48.75194" lon="1.7492">
        <ele>179.1</ele>
        <time>2025-11-27T09:59:11Z</time>
      </trkpt>
      <trkpt lat="48.75187" lon="1.74931">
        <ele>179.2</ele>
        <time>2025-11-27T09:59:17Z</time>
      </trkpt>
      <trkpt lat="48.7518" lon="1.74941">
        <ele>179.3</ele>
        <time>2025-11-27T09:59:24Z</time>
      </trkpt>
      <trkpt lat="48.75171" lon="1.74948">
        <ele>179.3</ele>
        <time>2025-11-27T09:59:31Z</time>
      </trkpt>
      <trkpt lat="48.75162" lon="1.74955">
        <ele>179.1</ele>
        <time>2025-11-27T09:59:38Z</time>
      </trkpt>
      <trkpt lat="48.75154" lon="1.74961">
        <ele>179</ele>
        <time>2025-11-27T09:59:45Z</time>
      </trkpt>
      <trkpt lat="48.75146" lon="1.74967">
        <ele>178.9</ele>
        <time>2025-11-27T09:59:51Z</time>
      </trkpt>
      <trkpt lat="48.75137" lon="1.74969">
        <ele>178.8</ele>
        <time>2025-11-27T09:59:57Z</time>
      </trkpt>
      <trkpt lat="48.75127" lon="1.74973">
        <ele>179.5</ele>
        <time>2025-11-27T10:00:04Z</time>
      </trkpt>
      <trkpt lat="48.75118" lon="1.74977">
        <ele>179.9</ele>
        <time>2025-11-27T10:00:12Z</time>
      </trkpt>
      <trkpt lat="48.75109" lon="1.74979">
        <ele>180.2</ele>
        <time>2025-11-27T10:00:19Z</time>
      </trkpt>
      <trkpt lat="48.751" lon="1.74984">
        <ele>180.4</ele>
        <time>2025-11-27T10:00:26Z</time>
      </trkpt>
      <trkpt lat="48.75092" lon="1.74993">
        <ele>180.7</ele>
        <time>2025-11-27T10:00:33Z</time>
      </trkpt>
      <trkpt lat="48.75085" lon="1.75001">
        <ele>181</ele>
        <time>2025-11-27T10:00:42Z</time>
      </trkpt>
      <trkpt lat="48.75082" lon="1.75016">
        <ele>181.5</ele>
        <time>2025-11-27T10:00:56Z</time>
      </trkpt>
      <trkpt lat="48.75075" lon="1.75027">
        <ele>181.7</ele>
        <time>2025-11-27T10:01:04Z</time>
      </trkpt>
      <trkpt lat="48.75068" lon="1.75036">
        <ele>181.5</ele>
        <time>2025-11-27T10:01:11Z</time>
      </trkpt>
      <trkpt lat="48.75062" lon="1.75049">
        <ele>181.2</ele>
        <time>2025-11-27T10:01:18Z</time>
      </trkpt>
      <trkpt lat="48.75056" lon="1.7506">
        <ele>181</ele>
        <time>2025-11-27T10:01:25Z</time>
      </trkpt>
      <trkpt lat="48.7505" lon="1.75071">
        <ele>180.8</ele>
        <time>2025-11-27T10:01:32Z</time>
      </trkpt>
      <trkpt lat="48.75043" lon="1.75083">
        <ele>180.6</ele>
        <time>2025-11-27T10:01:39Z</time>
      </trkpt>
      <trkpt lat="48.75035" lon="1.75091">
        <ele>180.3</ele>
        <time>2025-11-27T10:01:46Z</time>
      </trkpt>
      <trkpt lat="48.75026" lon="1.75098">
        <ele>179.9</ele>
        <time>2025-11-27T10:01:54Z</time>
      </trkpt>
      <trkpt lat="48.75017" lon="1.75105">
        <ele>179.2</ele>
        <time>2025-11-27T10:02:01Z</time>
      </trkpt>
      <trkpt lat="48.75009" lon="1.75112">
        <ele>178.7</ele>
        <time>2025-11-27T10:02:07Z</time>
      </trkpt>
      <trkpt lat="48.75001" lon="1.75118">
        <ele>178</ele>
        <time>2025-11-27T10:02:18Z</time>
      </trkpt>
      <trkpt lat="48.74999" lon="1.75133">
        <ele>177.9</ele>
        <time>2025-11-27T10:02:27Z</time>
      </trkpt>
      <trkpt lat="48.74997" lon="1.75146">
        <ele>177.7</ele>
        <time>2025-11-27T10:02:34Z</time>
      </trkpt>
      <trkpt lat="48.74995" lon="1.75161">
        <ele>177.6</ele>
        <time>2025-11-27T10:02:42Z</time>
      </trkpt>
      <trkpt lat="48.74994" lon="1.75175">
        <ele>177.8</ele>
        <time>2025-11-27T10:02:50Z</time>
      </trkpt>
      <trkpt lat="48.74995" lon="1.75189">
        <ele>178.3</ele>
        <time>2025-11-27T10:02:57Z</time>
      </trkpt>
      <trkpt lat="48.74996" lon="1.75204">
        <ele>178.5</ele>
        <time>2025-11-27T10:03:04Z</time>
      </trkpt>
      <trkpt lat="48.74995" lon="1.75218">
        <ele>178.4</ele>
        <time>2025-11-27T10:03:10Z</time>
      </trkpt>
      <trkpt lat="48.74996" lon="1.75233">
        <ele>178.5</ele>
        <time>2025-11-27T10:03:17Z</time>
      </trkpt>
      <trkpt lat="48.74998" lon="1.75248">
        <ele>178.7</ele>
        <time>2025-11-27T10:03:24Z</time>
      </trkpt>
      <trkpt lat="48.75" lon="1.75262">
        <ele>179</ele>
        <time>2025-11-27T10:03:31Z</time>
      </trkpt>
      <trkpt lat="48.75" lon="1.75277">
        <ele>179</ele>
        <time>2025-11-27T10:03:38Z</time>
      </trkpt>
      <trkpt lat="48.75" lon="1.75292">
        <ele>179.5</ele>
        <time>2025-11-27T10:03:46Z</time>
      </trkpt>
      <trkpt lat="48.74999" lon="1.75306">
        <ele>179.8</ele>
        <time>2025-11-27T10:03:52Z</time>
      </trkpt>
      <trkpt lat="48.74999" lon="1.7532">
        <ele>179.8</ele>
        <time>2025-11-27T10:03:58Z</time>
      </trkpt>
      <trkpt lat="48.74998" lon="1.75334">
        <ele>179.9</ele>
        <time>2025-11-27T10:04:04Z</time>
      </trkpt>
      <trkpt lat="48.75" lon="1.75349">
        <ele>180.6</ele>
        <time>2025-11-27T10:04:11Z</time>
      </trkpt>
      <trkpt lat="48.75" lon="1.75365">
        <ele>181.1</ele>
        <time>2025-11-27T10:04:18Z</time>
      </trkpt>
      <trkpt lat="48.75001" lon="1.7538">
        <ele>181.7</ele>
        <time>2025-11-27T10:04:24Z</time>
      </trkpt>
      <trkpt lat="48.75002" lon="1.75394">
        <ele>182</ele>
        <time>2025-11-27T10:04:30Z</time>
      </trkpt>
      <trkpt lat="48.75002" lon="1.75409">
        <ele>182</ele>
        <time>2025-11-27T10:04:37Z</time>
      </trkpt>
      <trkpt lat="48.75003" lon="1.75425">
        <ele>182.1</ele>
        <time>2025-11-27T10:04:44Z</time>
      </trkpt>
      <trkpt lat="48.75004" lon="1.7544">
        <ele>182.1</ele>
        <time>2025-11-27T10:04:51Z</time>
      </trkpt>
      <trkpt lat="48.75006" lon="1.75455">
        <ele>182.2</ele>
        <time>2025-11-27T10:04:58Z</time>
      </trkpt>
      <trkpt lat="48.75007" lon="1.75469">
        <ele>182.3</ele>
        <time>2025-11-27T10:05:04Z</time>
      </trkpt>
      <trkpt lat="48.7501" lon="1.75483">
        <ele>182.2</ele>
        <time>2025-11-27T10:05:11Z</time>
      </trkpt>
      <trkpt lat="48.75013" lon="1.75497">
        <ele>182.1</ele>
        <time>2025-11-27T10:05:18Z</time>
      </trkpt>
      <trkpt lat="48.75016" lon="1.75511">
        <ele>182</ele>
        <time>2025-11-27T10:05:25Z</time>
      </trkpt>
      <trkpt lat="48.75018" lon="1.75524">
        <ele>182</ele>
        <time>2025-11-27T10:05:32Z</time>
      </trkpt>
      <trkpt lat="48.75021" lon="1.75539">
        <ele>181.9</ele>
        <time>2025-11-27T10:05:39Z</time>
      </trkpt>
      <trkpt lat="48.75024" lon="1.75552">
        <ele>181.9</ele>
        <time>2025-11-27T10:05:46Z</time>
      </trkpt>
      <trkpt lat="48.75025" lon="1.75568">
        <ele>181.5</ele>
        <time>2025-11-27T10:05:53Z</time>
      </trkpt>
      <trkpt lat="48.75027" lon="1.75582">
        <ele>181</ele>
        <time>2025-11-27T10:06:00Z</time>
      </trkpt>
      <trkpt lat="48.7503" lon="1.75597">
        <ele>181</ele>
        <time>2025-11-27T10:06:07Z</time>
      </trkpt>
      <trkpt lat="48.75032" lon="1.75612">
        <ele>181</ele>
        <time>2025-11-27T10:06:14Z</time>
      </trkpt>
      <trkpt lat="48.75035" lon="1.75626">
        <ele>181</ele>
        <time>2025-11-27T10:06:21Z</time>
      </trkpt>
      <trkpt lat="48.75038" lon="1.75641">
        <ele>181</ele>
        <time>2025-11-27T10:06:29Z</time>
      </trkpt>
      <trkpt lat="48.7504" lon="1.75655">
        <ele>181</ele>
        <time>2025-11-27T10:06:36Z</time>
      </trkpt>
      <trkpt lat="48.75041" lon="1.75669">
        <ele>181</ele>
        <time>2025-11-27T10:06:43Z</time>
      </trkpt>
      <trkpt lat="48.75043" lon="1.75684">
        <ele>181</ele>
        <time>2025-11-27T10:06:50Z</time>
      </trkpt>
      <trkpt lat="48.75046" lon="1.75698">
        <ele>181</ele>
        <time>2025-11-27T10:06:57Z</time>
      </trkpt>
      <trkpt lat="48.75048" lon="1.75712">
        <ele>181</ele>
        <time>2025-11-27T10:07:04Z</time>
      </trkpt>
      <trkpt lat="48.75051" lon="1.75726">
        <ele>181</ele>
        <time>2025-11-27T10:07:12Z</time>
      </trkpt>
      <trkpt lat="48.75054" lon="1.7574">
        <ele>181</ele>
        <time>2025-11-27T10:07:21Z</time>
      </trkpt>
      <trkpt lat="48.75056" lon="1.75755">
        <ele>181</ele>
        <time>2025-11-27T10:07:30Z</time>
      </trkpt>
      <trkpt lat="48.75052" lon="1.75768">
        <ele>180.9</ele>
        <time>2025-11-27T10:07:38Z</time>
      </trkpt>
      <trkpt lat="48.75049" lon="1.75782">
        <ele>180.9</ele>
        <time>2025-11-27T10:07:46Z</time>
      </trkpt>
      <trkpt lat="48.75048" lon="1.75798">
        <ele>181.3</ele>
        <time>2025-11-27T10:07:54Z</time>
      </trkpt>
      <trkpt lat="48.75049" lon="1.75813">
        <ele>181.5</ele>
        <time>2025-11-27T10:08:08Z</time>
      </trkpt>
      <trkpt lat="48.75049" lon="1.75798">
        <ele>181.3</ele>
        <time>2025-11-27T10:09:46Z</time>
      </trkpt>
      <trkpt lat="48.75044" lon="1.75785">
        <ele>180.7</ele>
        <time>2025-11-27T10:09:56Z</time>
      </trkpt>
      <trkpt lat="48.75035" lon="1.75784">
        <ele>180.3</ele>
        <time>2025-11-27T10:10:11Z</time>
      </trkpt>
      <trkpt lat="48.75026" lon="1.75786">
        <ele>179.7</ele>
        <time>2025-11-27T10:10:20Z</time>
      </trkpt>
      <trkpt lat="48.75016" lon="1.7579">
        <ele>178.1</ele>
        <time>2025-11-27T10:10:28Z</time>
      </trkpt>
      <trkpt lat="48.75007" lon="1.75797">
        <ele>176.5</ele>
        <time>2025-11-27T10:10:35Z</time>
      </trkpt>
      <trkpt lat="48.74998" lon="1.75805">
        <ele>174.7</ele>
        <time>2025-11-27T10:10:48Z</time>
      </trkpt>
      <trkpt lat="48.74988" lon="1.75805">
        <ele>172.4</ele>
        <time>2025-11-27T10:10:55Z</time>
      </trkpt>
      <trkpt lat="48.7498" lon="1.75813">
        <ele>171.3</ele>
        <time>2025-11-27T10:11:05Z</time>
      </trkpt>
      <trkpt lat="48.74971" lon="1.75814">
        <ele>169.6</ele>
        <time>2025-11-27T10:11:13Z</time>
      </trkpt>
      <trkpt lat="48.74961" lon="1.75813">
        <ele>167.8</ele>
        <time>2025-11-27T10:11:21Z</time>
      </trkpt>
      <trkpt lat="48.74951" lon="1.75813">
        <ele>166</ele>
        <time>2025-11-27T10:11:31Z</time>
      </trkpt>
      <trkpt lat="48.74942" lon="1.75814">
        <ele>164.5</ele>
        <time>2025-11-27T10:11:40Z</time>
      </trkpt>
      <trkpt lat="48.74932" lon="1.75814">
        <ele>163</ele>
        <time>2025-11-27T10:11:48Z</time>
      </trkpt>
      <trkpt lat="48.74922" lon="1.75812">
        <ele>161.3</ele>
        <time>2025-11-27T10:11:56Z</time>
      </trkpt>
      <trkpt lat="48.74913" lon="1.75809">
        <ele>159.5</ele>
        <time>2025-11-27T10:12:04Z</time>
      </trkpt>
      <trkpt lat="48.74903" lon="1.75811">
        <ele>158</ele>
        <time>2025-11-27T10:12:14Z</time>
      </trkpt>
      <trkpt lat="48.74894" lon="1.75805">
        <ele>156</ele>
        <time>2025-11-27T10:12:24Z</time>
      </trkpt>
      <trkpt lat="48.74887" lon="1.75796">
        <ele>155.8</ele>
        <time>2025-11-27T10:12:33Z</time>
      </trkpt>
      <trkpt lat="48.74878" lon="1.75791">
        <ele>155</ele>
        <time>2025-11-27T10:12:42Z</time>
      </trkpt>
      <trkpt lat="48.7487" lon="1.75784">
        <ele>153.8</ele>
        <time>2025-11-27T10:12:49Z</time>
      </trkpt>
      <trkpt lat="48.74862" lon="1.75773">
        <ele>152.5</ele>
        <time>2025-11-27T10:12:57Z</time>
      </trkpt>
      <trkpt lat="48.74852" lon="1.75767">
        <ele>151.5</ele>
        <time>2025-11-27T10:13:04Z</time>
      </trkpt>
      <trkpt lat="48.74842" lon="1.75764">
        <ele>150.3</ele>
        <time>2025-11-27T10:13:12Z</time>
      </trkpt>
      <trkpt lat="48.74833" lon="1.75766">
        <ele>148.9</ele>
        <time>2025-11-27T10:13:20Z</time>
      </trkpt>
      <trkpt lat="48.74823" lon="1.75771">
        <ele>147.8</ele>
        <time>2025-11-27T10:13:27Z</time>
      </trkpt>
      <trkpt lat="48.74814" lon="1.75774">
        <ele>146.9</ele>
        <time>2025-11-27T10:13:34Z</time>
      </trkpt>
      <trkpt lat="48.74805" lon="1.75776">
        <ele>146.1</ele>
        <time>2025-11-27T10:13:41Z</time>
      </trkpt>
      <trkpt lat="48.74795" lon="1.75773">
        <ele>145.6</ele>
        <time>2025-11-27T10:13:49Z</time>
      </trkpt>
      <trkpt lat="48.74784" lon="1.75775">
        <ele>144.7</ele>
        <time>2025-11-27T10:13:56Z</time>
      </trkpt>
      <trkpt lat="48.74776" lon="1.7578">
        <ele>143.9</ele>
        <time>2025-11-27T10:14:04Z</time>
      </trkpt>
      <trkpt lat="48.74769" lon="1.75792">
        <ele>143.4</ele>
        <time>2025-11-27T10:14:12Z</time>
      </trkpt>
      <trkpt lat="48.7477" lon="1.75806">
        <ele>143</ele>
        <time>2025-11-27T10:14:21Z</time>
      </trkpt>
      <trkpt lat="48.7478" lon="1.75807">
        <ele>143.2</ele>
        <time>2025-11-27T10:14:46Z</time>
      </trkpt>
      <trkpt lat="48.74783" lon="1.7582">
        <ele>143.7</ele>
        <time>2025-11-27T10:14:53Z</time>
      </trkpt>
      <trkpt lat="48.74779" lon="1.75833">
        <ele>143.3</ele>
        <time>2025-11-27T10:14:57Z</time>
      </trkpt>
      <trkpt lat="48.74776" lon="1.75848">
        <ele>142.9</ele>
        <time>2025-11-27T10:15:02Z</time>
      </trkpt>
      <trkpt lat="48.74773" lon="1.75861">
        <ele>142.8</ele>
        <time>2025-11-27T10:15:08Z</time>
      </trkpt>
      <trkpt lat="48.74774" lon="1.75877">
        <ele>142.9</ele>
        <time>2025-11-27T10:15:15Z</time>
      </trkpt>
      <trkpt lat="48.74774" lon="1.75892">
        <ele>143</ele>
        <time>2025-11-27T10:15:23Z</time>
      </trkpt>
      <trkpt lat="48.74772" lon="1.75905">
        <ele>143.3</ele>
        <time>2025-11-27T10:15:32Z</time>
      </trkpt>
      <trkpt lat="48.74772" lon="1.7592">
        <ele>143.7</ele>
        <time>2025-11-27T10:15:42Z</time>
      </trkpt>
      <trkpt lat="48.74771" lon="1.75933">
        <ele>144</ele>
        <time>2025-11-27T10:15:51Z</time>
      </trkpt>
      <trkpt lat="48.74769" lon="1.75948">
        <ele>144.4</ele>
        <time>2025-11-27T10:16:00Z</time>
      </trkpt>
      <trkpt lat="48.74765" lon="1.75962">
        <ele>144.9</ele>
        <time>2025-11-27T10:16:09Z</time>
      </trkpt>
      <trkpt lat="48.74761" lon="1.75974">
        <ele>145.1</ele>
        <time>2025-11-27T10:16:20Z</time>
      </trkpt>
      <trkpt lat="48.74755" lon="1.75987">
        <ele>145</ele>
        <time>2025-11-27T10:16:45Z</time>
      </trkpt>
      <trkpt lat="48.74748" lon="1.75997">
        <ele>144.6</ele>
        <time>2025-11-27T10:16:53Z</time>
      </trkpt>
      <trkpt lat="48.74741" lon="1.76007">
        <ele>144.8</ele>
        <time>2025-11-27T10:17:01Z</time>
      </trkpt>
      <trkpt lat="48.74732" lon="1.76013">
        <ele>144.3</ele>
        <time>2025-11-27T10:17:08Z</time>
      </trkpt>
      <trkpt lat="48.74722" lon="1.76014">
        <ele>143.5</ele>
        <time>2025-11-27T10:17:16Z</time>
      </trkpt>
      <trkpt lat="48.74714" lon="1.76017">
        <ele>143.6</ele>
        <time>2025-11-27T10:17:24Z</time>
      </trkpt>
      <trkpt lat="48.74708" lon="1.76029">
        <ele>144.1</ele>
        <time>2025-11-27T10:17:32Z</time>
      </trkpt>
      <trkpt lat="48.74701" lon="1.76038">
        <ele>144.6</ele>
        <time>2025-11-27T10:17:40Z</time>
      </trkpt>
      <trkpt lat="48.74692" lon="1.76045">
        <ele>144.5</ele>
        <time>2025-11-27T10:17:48Z</time>
      </trkpt>
      <trkpt lat="48.74684" lon="1.76054">
        <ele>144.6</ele>
        <time>2025-11-27T10:18:03Z</time>
      </trkpt>
      <trkpt lat="48.74675" lon="1.7606">
        <ele>144.6</ele>
        <time>2025-11-27T10:18:10Z</time>
      </trkpt>
      <trkpt lat="48.74666" lon="1.76064">
        <ele>144.6</ele>
        <time>2025-11-27T10:18:18Z</time>
      </trkpt>
      <trkpt lat="48.74656" lon="1.76067">
        <ele>145</ele>
        <time>2025-11-27T10:18:25Z</time>
      </trkpt>
      <trkpt lat="48.74647" lon="1.76068">
        <ele>145.3</ele>
        <time>2025-11-27T10:18:33Z</time>
      </trkpt>
      <trkpt lat="48.74637" lon="1.7607">
        <ele>145.6</ele>
        <time>2025-11-27T10:18:40Z</time>
      </trkpt>
      <trkpt lat="48.74627" lon="1.76074">
        <ele>145.9</ele>
        <time>2025-11-27T10:18:47Z</time>
      </trkpt>
      <trkpt lat="48.74618" lon="1.76074">
        <ele>146</ele>
        <time>2025-11-27T10:18:54Z</time>
      </trkpt>
      <trkpt lat="48.74608" lon="1.76077">
        <ele>146.1</ele>
        <time>2025-11-27T10:19:01Z</time>
      </trkpt>
      <trkpt lat="48.74598" lon="1.76079">
        <ele>145.7</ele>
        <time>2025-11-27T10:19:07Z</time>
      </trkpt>
      <trkpt lat="48.74588" lon="1.76082">
        <ele>145.2</ele>
        <time>2025-11-27T10:19:13Z</time>
      </trkpt>
      <trkpt lat="48.74578" lon="1.76084">
        <ele>144.9</ele>
        <time>2025-11-27T10:19:20Z</time>
      </trkpt>
      <trkpt lat="48.74569" lon="1.76093">
        <ele>145.5</ele>
        <time>2025-11-27T10:19:28Z</time>
      </trkpt>
      <trkpt lat="48.74562" lon="1.761">
        <ele>145.7</ele>
        <time>2025-11-27T10:19:35Z</time>
      </trkpt>
      <trkpt lat="48.74554" lon="1.76108">
        <ele>145.7</ele>
        <time>2025-11-27T10:19:42Z</time>
      </trkpt>
      <trkpt lat="48.74549" lon="1.76119">
        <ele>146.1</ele>
        <time>2025-11-27T10:19:49Z</time>
      </trkpt>
      <trkpt lat="48.74544" lon="1.7613">
        <ele>146.5</ele>
        <time>2025-11-27T10:19:56Z</time>
      </trkpt>
      <trkpt lat="48.74537" lon="1.76141">
        <ele>146.9</ele>
        <time>2025-11-27T10:20:04Z</time>
      </trkpt>
      <trkpt lat="48.74532" lon="1.76153">
        <ele>147.8</ele>
        <time>2025-11-27T10:20:13Z</time>
      </trkpt>
      <trkpt lat="48.74525" lon="1.76163">
        <ele>148.2</ele>
        <time>2025-11-27T10:20:24Z</time>
      </trkpt>
      <trkpt lat="48.74518" lon="1.76174">
        <ele>148.3</ele>
        <time>2025-11-27T10:20:33Z</time>
      </trkpt>
      <trkpt lat="48.74513" lon="1.76185">
        <ele>148.1</ele>
        <time>2025-11-27T10:20:40Z</time>
      </trkpt>
      <trkpt lat="48.74506" lon="1.76196">
        <ele>147.5</ele>
        <time>2025-11-27T10:20:47Z</time>
      </trkpt>
      <trkpt lat="48.745" lon="1.76206">
        <ele>146.8</ele>
        <time>2025-11-27T10:20:54Z</time>
      </trkpt>
      <trkpt lat="48.74494" lon="1.76218">
        <ele>147.1</ele>
        <time>2025-11-27T10:21:00Z</time>
      </trkpt>
      <trkpt lat="48.74488" lon="1.76227">
        <ele>146.8</ele>
        <time>2025-11-27T10:21:06Z</time>
      </trkpt>
      <trkpt lat="48.74479" lon="1.76234">
        <ele>146.2</ele>
        <time>2025-11-27T10:21:13Z</time>
      </trkpt>
      <trkpt lat="48.74471" lon="1.76244">
        <ele>145.7</ele>
        <time>2025-11-27T10:21:20Z</time>
      </trkpt>
      <trkpt lat="48.74462" lon="1.76251">
        <ele>145.7</ele>
        <time>2025-11-27T10:21:28Z</time>
      </trkpt>
      <trkpt lat="48.74454" lon="1.76258">
        <ele>145.6</ele>
        <time>2025-11-27T10:21:35Z</time>
      </trkpt>
      <trkpt lat="48.74445" lon="1.76265">
        <ele>145.6</ele>
        <time>2025-11-27T10:21:42Z</time>
      </trkpt>
      <trkpt lat="48.74436" lon="1.7627">
        <ele>145.7</ele>
        <time>2025-11-27T10:21:49Z</time>
      </trkpt>
      <trkpt lat="48.74427" lon="1.76275">
        <ele>145.9</ele>
        <time>2025-11-27T10:21:55Z</time>
      </trkpt>
      <trkpt lat="48.74417" lon="1.76277">
        <ele>146</ele>
        <time>2025-11-27T10:22:02Z</time>
      </trkpt>
      <trkpt lat="48.74408" lon="1.76281">
        <ele>146.5</ele>
        <time>2025-11-27T10:22:09Z</time>
      </trkpt>
      <trkpt lat="48.74399" lon="1.76283">
        <ele>147.1</ele>
        <time>2025-11-27T10:22:17Z</time>
      </trkpt>
      <trkpt lat="48.7439" lon="1.76288">
        <ele>148</ele>
        <time>2025-11-27T10:22:28Z</time>
      </trkpt>
      <trkpt lat="48.74388" lon="1.76302">
        <ele>149.6</ele>
        <time>2025-11-27T10:22:42Z</time>
      </trkpt>
      <trkpt lat="48.74394" lon="1.76314">
        <ele>150.4</ele>
        <time>2025-11-27T10:22:51Z</time>
      </trkpt>
      <trkpt lat="48.74394" lon="1.76329">
        <ele>151.6</ele>
        <time>2025-11-27T10:22:59Z</time>
      </trkpt>
      <trkpt lat="48.74395" lon="1.76343">
        <ele>153.1</ele>
        <time>2025-11-27T10:23:08Z</time>
      </trkpt>
      <trkpt lat="48.74396" lon="1.76359">
        <ele>154.7</ele>
        <time>2025-11-27T10:23:17Z</time>
      </trkpt>
      <trkpt lat="48.74397" lon="1.76373">
        <ele>156.1</ele>
        <time>2025-11-27T10:23:28Z</time>
      </trkpt>
      <trkpt lat="48.74399" lon="1.76388">
        <ele>157.5</ele>
        <time>2025-11-27T10:23:40Z</time>
      </trkpt>
      <trkpt lat="48.74401" lon="1.76401">
        <ele>158.9</ele>
        <time>2025-11-27T10:23:49Z</time>
      </trkpt>
      <trkpt lat="48.74405" lon="1.76415">
        <ele>160.2</ele>
        <time>2025-11-27T10:23:59Z</time>
      </trkpt>
      <trkpt lat="48.7441" lon="1.76427">
        <ele>161.2</ele>
        <time>2025-11-27T10:24:24Z</time>
      </trkpt>
      <trkpt lat="48.74415" lon="1.76439">
        <ele>162.4</ele>
        <time>2025-11-27T10:24:36Z</time>
      </trkpt>
      <trkpt lat="48.7442" lon="1.76451">
        <ele>163.8</ele>
        <time>2025-11-27T10:24:46Z</time>
      </trkpt>
      <trkpt lat="48.74424" lon="1.76465">
        <ele>165</ele>
        <time>2025-11-27T10:24:55Z</time>
      </trkpt>
      <trkpt lat="48.74431" lon="1.76477">
        <ele>166.4</ele>
        <time>2025-11-27T10:25:03Z</time>
      </trkpt>
      <trkpt lat="48.74439" lon="1.76485">
        <ele>167.8</ele>
        <time>2025-11-27T10:25:11Z</time>
      </trkpt>
      <trkpt lat="48.74447" lon="1.76491">
        <ele>169.5</ele>
        <time>2025-11-27T10:25:20Z</time>
      </trkpt>
      <trkpt lat="48.74456" lon="1.76496">
        <ele>171.3</ele>
        <time>2025-11-27T10:25:27Z</time>
      </trkpt>
      <trkpt lat="48.74464" lon="1.76503">
        <ele>173.1</ele>
        <time>2025-11-27T10:25:35Z</time>
      </trkpt>
      <trkpt lat="48.74472" lon="1.7651">
        <ele>174.8</ele>
        <time>2025-11-27T10:25:43Z</time>
      </trkpt>
      <trkpt lat="48.7448" lon="1.76519">
        <ele>176.5</ele>
        <time>2025-11-27T10:25:52Z</time>
      </trkpt>
      <trkpt lat="48.7448" lon="1.76534">
        <ele>177.3</ele>
        <time>2025-11-27T10:26:01Z</time>
      </trkpt>
      <trkpt lat="48.74481" lon="1.76549">
        <ele>177.7</ele>
        <time>2025-11-27T10:26:11Z</time>
      </trkpt>
      <trkpt lat="48.74486" lon="1.76561">
        <ele>178.7</ele>
        <time>2025-11-27T10:26:20Z</time>
      </trkpt>
      <trkpt lat="48.74494" lon="1.76571">
        <ele>179.9</ele>
        <time>2025-11-27T10:26:29Z</time>
      </trkpt>
      <trkpt lat="48.74498" lon="1.76583">
        <ele>180.8</ele>
        <time>2025-11-27T10:26:39Z</time>
      </trkpt>
      <trkpt lat="48.74501" lon="1.76597">
        <ele>181</ele>
        <time>2025-11-27T10:26:48Z</time>
      </trkpt>
      <trkpt lat="48.74502" lon="1.76611">
        <ele>181.1</ele>
        <time>2025-11-27T10:26:57Z</time>
      </trkpt>
      <trkpt lat="48.74499" lon="1.76626">
        <ele>181</ele>
        <time>2025-11-27T10:27:05Z</time>
      </trkpt>
      <trkpt lat="48.74502" lon="1.76639">
        <ele>181.1</ele>
        <time>2025-11-27T10:27:15Z</time>
      </trkpt>
      <trkpt lat="48.74497" lon="1.76652">
        <ele>180.9</ele>
        <time>2025-11-27T10:27:23Z</time>
      </trkpt>
      <trkpt lat="48.74494" lon="1.76666">
        <ele>180.8</ele>
        <time>2025-11-27T10:27:30Z</time>
      </trkpt>
      <trkpt lat="48.74498" lon="1.76678">
        <ele>181</ele>
        <time>2025-11-27T10:27:38Z</time>
      </trkpt>
      <trkpt lat="48.74498" lon="1.76693">
        <ele>181</ele>
        <time>2025-11-27T10:29:21Z</time>
      </trkpt>
      <trkpt lat="48.74491" lon="1.76704">
        <ele>181</ele>
        <time>2025-11-27T10:29:28Z</time>
      </trkpt>
      <trkpt lat="48.74485" lon="1.76715">
        <ele>181</ele>
        <time>2025-11-27T10:29:34Z</time>
      </trkpt>
      <trkpt lat="48.74478" lon="1.76723">
        <ele>181</ele>
        <time>2025-11-27T10:29:40Z</time>
      </trkpt>
      <trkpt lat="48.74471" lon="1.76732">
        <ele>181</ele>
        <time>2025-11-27T10:29:46Z</time>
      </trkpt>
      <trkpt lat="48.74463" lon="1.76742">
        <ele>180.7</ele>
        <time>2025-11-27T10:29:53Z</time>
      </trkpt>
      <trkpt lat="48.74456" lon="1.76752">
        <ele>180.4</ele>
        <time>2025-11-27T10:29:59Z</time>
      </trkpt>
      <trkpt lat="48.74449" lon="1.7676">
        <ele>180.1</ele>
        <time>2025-11-27T10:30:05Z</time>
      </trkpt>
      <trkpt lat="48.74442" lon="1.76772">
        <ele>179.8</ele>
        <time>2025-11-27T10:30:12Z</time>
      </trkpt>
      <trkpt lat="48.74437" lon="1.76783">
        <ele>179.4</ele>
        <time>2025-11-27T10:30:19Z</time>
      </trkpt>
      <trkpt lat="48.7443" lon="1.76792">
        <ele>178.9</ele>
        <time>2025-11-27T10:30:26Z</time>
      </trkpt>
      <trkpt lat="48.74423" lon="1.76802">
        <ele>178.4</ele>
        <time>2025-11-27T10:30:33Z</time>
      </trkpt>
      <trkpt lat="48.74415" lon="1.76812">
        <ele>177.7</ele>
        <time>2025-11-27T10:30:40Z</time>
      </trkpt>
      <trkpt lat="48.74408" lon="1.76822">
        <ele>176.8</ele>
        <time>2025-11-27T10:30:46Z</time>
      </trkpt>
      <trkpt lat="48.74403" lon="1.76833">
        <ele>176.5</ele>
        <time>2025-11-27T10:30:52Z</time>
      </trkpt>
      <trkpt lat="48.74397" lon="1.76844">
        <ele>176.2</ele>
        <time>2025-11-27T10:30:58Z</time>
      </trkpt>
      <trkpt lat="48.74392" lon="1.76857">
        <ele>176.1</ele>
        <time>2025-11-27T10:31:05Z</time>
      </trkpt>
      <trkpt lat="48.74387" lon="1.76872">
        <ele>176.2</ele>
        <time>2025-11-27T10:31:12Z</time>
      </trkpt>
      <trkpt lat="48.74382" lon="1.76883">
        <ele>176.2</ele>
        <time>2025-11-27T10:31:18Z</time>
      </trkpt>
      <trkpt lat="48.74375" lon="1.76894">
        <ele>176.3</ele>
        <time>2025-11-27T10:31:25Z</time>
      </trkpt>
      <trkpt lat="48.74367" lon="1.76902">
        <ele>176.3</ele>
        <time>2025-11-27T10:31:32Z</time>
      </trkpt>
      <trkpt lat="48.7436" lon="1.76911">
        <ele>176.5</ele>
        <time>2025-11-27T10:31:39Z</time>
      </trkpt>
      <trkpt lat="48.74353" lon="1.76921">
        <ele>176.3</ele>
        <time>2025-11-27T10:31:46Z</time>
      </trkpt>
      <trkpt lat="48.74346" lon="1.76931">
        <ele>176.2</ele>
        <time>2025-11-27T10:31:53Z</time>
      </trkpt>
      <trkpt lat="48.74341" lon="1.76943">
        <ele>176.5</ele>
        <time>2025-11-27T10:31:59Z</time>
      </trkpt>
      <trkpt lat="48.74336" lon="1.76956">
        <ele>176.6</ele>
        <time>2025-11-27T10:32:06Z</time>
      </trkpt>
      <trkpt lat="48.74331" lon="1.76969">
        <ele>176.4</ele>
        <time>2025-11-27T10:32:14Z</time>
      </trkpt>
      <trkpt lat="48.74329" lon="1.76985">
        <ele>176.7</ele>
        <time>2025-11-27T10:32:20Z</time>
      </trkpt>
      <trkpt lat="48.74328" lon="1.76998">
        <ele>176.9</ele>
        <time>2025-11-27T10:32:27Z</time>
      </trkpt>
      <trkpt lat="48.74327" lon="1.77013">
        <ele>177.4</ele>
        <time>2025-11-27T10:32:34Z</time>
      </trkpt>
      <trkpt lat="48.74327" lon="1.77027">
        <ele>177.8</ele>
        <time>2025-11-27T10:32:41Z</time>
      </trkpt>
      <trkpt lat="48.74325" lon="1.77042">
        <ele>177.7</ele>
        <time>2025-11-27T10:32:47Z</time>
      </trkpt>
      <trkpt lat="48.74323" lon="1.77055">
        <ele>177.5</ele>
        <time>2025-11-27T10:32:54Z</time>
      </trkpt>
      <trkpt lat="48.74321" lon="1.7707">
        <ele>177.5</ele>
        <time>2025-11-27T10:33:01Z</time>
      </trkpt>
      <trkpt lat="48.74319" lon="1.77085">
        <ele>177.4</ele>
        <time>2025-11-27T10:33:09Z</time>
      </trkpt>
      <trkpt lat="48.74318" lon="1.77099">
        <ele>177.6</ele>
        <time>2025-11-27T10:33:17Z</time>
      </trkpt>
      <trkpt lat="48.74319" lon="1.77113">
        <ele>177.9</ele>
        <time>2025-11-27T10:33:25Z</time>
      </trkpt>
      <trkpt lat="48.74317" lon="1.77128">
        <ele>178</ele>
        <time>2025-11-27T10:33:33Z</time>
      </trkpt>
      <trkpt lat="48.74314" lon="1.77142">
        <ele>177.9</ele>
        <time>2025-11-27T10:33:41Z</time>
      </trkpt>
      <trkpt lat="48.74308" lon="1.77154">
        <ele>177.8</ele>
        <time>2025-11-27T10:33:48Z</time>
      </trkpt>
      <trkpt lat="48.74304" lon="1.77169">
        <ele>177.9</ele>
        <time>2025-11-27T10:33:54Z</time>
      </trkpt>
      <trkpt lat="48.743" lon="1.77181">
        <ele>177.7</ele>
        <time>2025-11-27T10:34:00Z</time>
      </trkpt>
      <trkpt lat="48.74296" lon="1.77193">
        <ele>177.9</ele>
        <time>2025-11-27T10:34:07Z</time>
      </trkpt>
      <trkpt lat="48.74292" lon="1.77207">
        <ele>178.2</ele>
        <time>2025-11-27T10:34:13Z</time>
      </trkpt>
      <trkpt lat="48.74289" lon="1.77221">
        <ele>178.8</ele>
        <time>2025-11-27T10:34:20Z</time>
      </trkpt>
      <trkpt lat="48.74286" lon="1.77235">
        <ele>178.9</ele>
        <time>2025-11-27T10:34:27Z</time>
      </trkpt>
      <trkpt lat="48.74281" lon="1.77248">
        <ele>179.1</ele>
        <time>2025-11-27T10:34:34Z</time>
      </trkpt>
      <trkpt lat="48.74274" lon="1.77257">
        <ele>178.7</ele>
        <time>2025-11-27T10:34:41Z</time>
      </trkpt>
      <trkpt lat="48.74265" lon="1.77267">
        <ele>178.1</ele>
        <time>2025-11-27T10:34:48Z</time>
      </trkpt>
      <trkpt lat="48.74257" lon="1.7727">
        <ele>177.2</ele>
        <time>2025-11-27T10:35:07Z</time>
      </trkpt>
      <trkpt lat="48.74251" lon="1.77281">
        <ele>177.2</ele>
        <time>2025-11-27T10:35:15Z</time>
      </trkpt>
      <trkpt lat="48.74243" lon="1.77289">
        <ele>176.5</ele>
        <time>2025-11-27T10:35:21Z</time>
      </trkpt>
      <trkpt lat="48.74234" lon="1.77295">
        <ele>175.8</ele>
        <time>2025-11-27T10:35:28Z</time>
      </trkpt>
      <trkpt lat="48.74224" lon="1.77297">
        <ele>175.1</ele>
        <time>2025-11-27T10:35:37Z</time>
      </trkpt>
      <trkpt lat="48.74216" lon="1.77304">
        <ele>175.6</ele>
        <time>2025-11-27T10:35:46Z</time>
      </trkpt>
      <trkpt lat="48.74206" lon="1.77307">
        <ele>175.6</ele>
        <time>2025-11-27T10:35:54Z</time>
      </trkpt>
      <trkpt lat="48.74197" lon="1.77306">
        <ele>175.1</ele>
        <time>2025-11-27T10:36:01Z</time>
      </trkpt>
      <trkpt lat="48.74187" lon="1.77301">
        <ele>174.2</ele>
        <time>2025-11-27T10:36:08Z</time>
      </trkpt>
      <trkpt lat="48.74179" lon="1.77294">
        <ele>173.3</ele>
        <time>2025-11-27T10:36:15Z</time>
      </trkpt>
      <trkpt lat="48.7417" lon="1.77292">
        <ele>173</ele>
        <time>2025-11-27T10:36:22Z</time>
      </trkpt>
      <trkpt lat="48.7416" lon="1.77296">
        <ele>172.6</ele>
        <time>2025-11-27T10:36:29Z</time>
      </trkpt>
      <trkpt lat="48.74152" lon="1.77303">
        <ele>172.2</ele>
        <time>2025-11-27T10:36:35Z</time>
      </trkpt>
      <trkpt lat="48.74145" lon="1.77315">
        <ele>171.9</ele>
        <time>2025-11-27T10:36:42Z</time>
      </trkpt>
      <trkpt lat="48.74139" lon="1.77325">
        <ele>171</ele>
        <time>2025-11-27T10:36:50Z</time>
      </trkpt>
      <trkpt lat="48.74132" lon="1.77335">
        <ele>169.9</ele>
        <time>2025-11-27T10:36:58Z</time>
      </trkpt>
      <trkpt lat="48.74125" lon="1.77345">
        <ele>169</ele>
        <time>2025-11-27T10:37:05Z</time>
      </trkpt>
      <trkpt lat="48.74117" lon="1.77355">
        <ele>167.9</ele>
        <time>2025-11-27T10:37:13Z</time>
      </trkpt>
      <trkpt lat="48.74112" lon="1.77368">
        <ele>166.9</ele>
        <time>2025-11-27T10:37:21Z</time>
      </trkpt>
      <trkpt lat="48.74109" lon="1.77381">
        <ele>166.1</ele>
        <time>2025-11-27T10:37:27Z</time>
      </trkpt>
      <trkpt lat="48.74105" lon="1.77395">
        <ele>165.5</ele>
        <time>2025-11-27T10:37:34Z</time>
      </trkpt>
      <trkpt lat="48.74101" lon="1.77409">
        <ele>165.3</ele>
        <time>2025-11-27T10:37:41Z</time>
      </trkpt>
      <trkpt lat="48.74098" lon="1.77422">
        <ele>164.8</ele>
        <time>2025-11-27T10:37:47Z</time>
      </trkpt>
      <trkpt lat="48.74095" lon="1.77437">
        <ele>164.1</ele>
        <time>2025-11-27T10:37:54Z</time>
      </trkpt>
      <trkpt lat="48.7409" lon="1.7745">
        <ele>163.3</ele>
        <time>2025-11-27T10:38:01Z</time>
      </trkpt>
      <trkpt lat="48.74083" lon="1.77461">
        <ele>162.4</ele>
        <time>2025-11-27T10:38:08Z</time>
      </trkpt>
      <trkpt lat="48.74077" lon="1.77475">
        <ele>161.8</ele>
        <time>2025-11-27T10:38:15Z</time>
      </trkpt>
      <trkpt lat="48.74072" lon="1.77486">
        <ele>161</ele>
        <time>2025-11-27T10:38:21Z</time>
      </trkpt>
      <trkpt lat="48.74066" lon="1.77497">
        <ele>160.2</ele>
        <time>2025-11-27T10:38:28Z</time>
      </trkpt>
      <trkpt lat="48.74059" lon="1.77508">
        <ele>159.5</ele>
        <time>2025-11-27T10:38:35Z</time>
      </trkpt>
      <trkpt lat="48.7405" lon="1.77513">
        <ele>159</ele>
        <time>2025-11-27T10:38:42Z</time>
      </trkpt>
      <trkpt lat="48.74039" lon="1.77517">
        <ele>158.5</ele>
        <time>2025-11-27T10:38:49Z</time>
      </trkpt>
      <trkpt lat="48.7403" lon="1.7752">
        <ele>157.9</ele>
        <time>2025-11-27T10:38:56Z</time>
      </trkpt>
      <trkpt lat="48.74021" lon="1.77522">
        <ele>157.6</ele>
        <time>2025-11-27T10:39:02Z</time>
      </trkpt>
      <trkpt lat="48.74011" lon="1.77524">
        <ele>157.4</ele>
        <time>2025-11-27T10:39:08Z</time>
      </trkpt>
      <trkpt lat="48.74002" lon="1.77524">
        <ele>157.4</ele>
        <time>2025-11-27T10:39:14Z</time>
      </trkpt>
      <trkpt lat="48.73993" lon="1.77525">
        <ele>157.1</ele>
        <time>2025-11-27T10:39:20Z</time>
      </trkpt>
      <trkpt lat="48.73983" lon="1.77526">
        <ele>156.5</ele>
        <time>2025-11-27T10:39:27Z</time>
      </trkpt>
      <trkpt lat="48.73973" lon="1.77527">
        <ele>156.1</ele>
        <time>2025-11-27T10:39:34Z</time>
      </trkpt>
      <trkpt lat="48.73962" lon="1.77525">
        <ele>156.3</ele>
        <time>2025-11-27T10:39:41Z</time>
      </trkpt>
      <trkpt lat="48.73953" lon="1.77524">
        <ele>156.3</ele>
        <time>2025-11-27T10:39:48Z</time>
      </trkpt>
      <trkpt lat="48.73944" lon="1.77517">
        <ele>156.8</ele>
        <time>2025-11-27T10:40:19Z</time>
      </trkpt>
      <trkpt lat="48.73935" lon="1.77514">
        <ele>156.8</ele>
        <time>2025-11-27T10:40:26Z</time>
      </trkpt>
      <trkpt lat="48.73926" lon="1.77513">
        <ele>156.7</ele>
        <time>2025-11-27T10:40:34Z</time>
      </trkpt>
      <trkpt lat="48.73918" lon="1.77507">
        <ele>156.3</ele>
        <time>2025-11-27T10:40:44Z</time>
      </trkpt>
      <trkpt lat="48.73908" lon="1.77503">
        <ele>156.2</ele>
        <time>2025-11-27T10:40:53Z</time>
      </trkpt>
      <trkpt lat="48.739" lon="1.77497">
        <ele>156</ele>
        <time>2025-11-27T10:41:01Z</time>
      </trkpt>
      <trkpt lat="48.73891" lon="1.77491">
        <ele>155.7</ele>
        <time>2025-11-27T10:41:08Z</time>
      </trkpt>
      <trkpt lat="48.73885" lon="1.77479">
        <ele>155.2</ele>
        <time>2025-11-27T10:41:17Z</time>
      </trkpt>
      <trkpt lat="48.73879" lon="1.7747">
        <ele>154.6</ele>
        <time>2025-11-27T10:41:25Z</time>
      </trkpt>
      <trkpt lat="48.73873" lon="1.77458">
        <ele>154.2</ele>
        <time>2025-11-27T10:41:34Z</time>
      </trkpt>
      <trkpt lat="48.73868" lon="1.77447">
        <ele>154</ele>
        <time>2025-11-27T10:41:43Z</time>
      </trkpt>
      <trkpt lat="48.7386" lon="1.77438">
        <ele>154</ele>
        <time>2025-11-27T10:41:53Z</time>
      </trkpt>
      <trkpt lat="48.73853" lon="1.77428">
        <ele>154.2</ele>
        <time>2025-11-27T10:42:03Z</time>
      </trkpt>
      <trkpt lat="48.73848" lon="1.77416">
        <ele>154.5</ele>
        <time>2025-11-27T10:42:12Z</time>
      </trkpt>
      <trkpt lat="48.73842" lon="1.77404">
        <ele>154.7</ele>
        <time>2025-11-27T10:42:21Z</time>
      </trkpt>
      <trkpt lat="48.73837" lon="1.77393">
        <ele>154.9</ele>
        <time>2025-11-27T10:42:59Z</time>
      </trkpt>
    </trkseg>
  </trk>
</gpx>